Time,TemperatureF,DewpointF,PressureIn,WindDirection,WindDirectionDegrees,WindSpeedMPH,WindSpeedGustMPH,Humidity,HourlyPrecipIn,Conditions,Clouds,dailyrainin,SoftwareType,DateUTC
2013-11-14 00:00:00,70.7,57.0,30.19,NNE,24,18.6,18.6,62,0.00,,,0.00,TxWx,2013-11-14 05:00:00,
2013-11-14 00:01:00,70.9,58.0,30.20,NNE,24,5.6,8.7,63,0.00,,,0.00,TxWx,2013-11-14 05:01:00,
2013-11-14 00:06:00,70.7,57.0,30.19,NE,46,11.1,11.1,62,0.00,,,0.00,TxWx,2013-11-14 05:06:00,
2013-11-14 00:07:00,70.5,56.0,30.19,NE,46,8.0,12.4,61,0.00,,,0.00,TxWx,2013-11-14 05:07:00,
2013-11-14 00:11:00,70.6,57.0,30.19,NNE,24,12.4,16.1,62,0.00,,,0.00,TxWx,2013-11-14 05:11:00,
2013-11-14 00:12:00,70.4,56.0,30.19,ENE,69,9.3,9.3,61,0.00,,,0.00,TxWx,2013-11-14 05:12:00,
2013-11-14 00:13:00,70.3,56.0,30.19,NNE,24,11.8,11.8,61,0.00,,,0.00,TxWx,2013-11-14 05:13:00,
2013-11-14 00:16:00,70.3,55.0,30.19,NNE,24,16.1,16.1,60,0.00,,,0.00,TxWx,2013-11-14 05:16:00,
2013-11-14 00:17:00,70.4,55.0,30.19,East,91,8.7,8.7,60,0.00,,,0.00,TxWx,2013-11-14 05:17:00,
2013-11-14 00:18:00,70.5,56.0,30.19,ENE,69,8.0,11.8,61,0.00,,,0.00,TxWx,2013-11-14 05:18:00,
2013-11-14 00:19:00,70.5,56.0,30.19,ESE,114,8.0,11.1,61,0.00,,,0.00,TxWx,2013-11-14 05:19:00,
2013-11-14 00:21:00,70.7,57.0,30.19,ENE,69,13.6,17.9,62,0.00,,,0.00,TxWx,2013-11-14 05:21:00,
2013-11-14 00:22:00,70.4,56.0,30.19,ESE,114,10.5,10.5,61,0.00,,,0.00,TxWx,2013-11-14 05:22:00,
2013-11-14 00:23:00,70.2,55.0,30.19,NNW,339,12.4,12.4,60,0.00,,,0.00,TxWx,2013-11-14 05:23:00,
2013-11-14 00:24:00,70.4,56.0,30.19,East,91,13.6,19.2,61,0.00,,,0.00,TxWx,2013-11-14 05:24:00,
2013-11-14 00:26:00,70.9,57.0,30.19,NE,46,14.2,14.2,61,0.00,,,0.00,TxWx,2013-11-14 05:26:00,
2013-11-14 00:28:00,70.3,55.0,30.19,East,91,16.7,16.7,60,0.00,,,0.00,TxWx,2013-11-14 05:28:00,
2013-11-14 00:29:00,70.6,56.0,30.19,NNE,24,13.6,14.2,60,0.00,,,0.00,TxWx,2013-11-14 05:29:00,
2013-11-14 00:31:00,70.6,57.0,30.19,NNW,339,15.5,17.9,62,0.00,,,0.00,TxWx,2013-11-14 05:31:00,
2013-11-14 00:33:00,70.6,56.0,30.19,ENE,69,9.9,15.5,60,0.00,,,0.00,TxWx,2013-11-14 05:33:00,
2013-11-14 00:34:00,70.5,56.0,30.19,NE,46,10.5,10.5,61,0.00,,,0.00,TxWx,2013-11-14 05:34:00,
2013-11-14 00:35:00,70.7,57.0,30.19,ENE,69,17.3,17.3,61,0.00,,,0.00,TxWx,2013-11-14 05:35:00,
2013-11-14 00:36:00,70.4,55.0,30.19,NE,46,15.5,15.5,60,0.00,,,0.00,TxWx,2013-11-14 05:36:00,
2013-11-14 00:38:00,70.5,56.0,30.19,East,91,8.7,10.5,61,0.00,,,0.00,TxWx,2013-11-14 05:38:00,
2013-11-14 00:39:00,70.5,56.0,30.19,ENE,69,6.8,11.8,61,0.00,,,0.00,TxWx,2013-11-14 05:39:00,
2013-11-14 00:40:00,70.5,56.0,30.19,NNE,24,13.0,14.9,61,0.00,,,0.00,TxWx,2013-11-14 05:40:00,
2013-11-14 00:41:00,70.8,57.0,30.19,NE,46,19.2,19.2,61,0.00,,,0.00,TxWx,2013-11-14 05:41:00,
2013-11-14 00:44:00,70.7,58.0,30.19,East,91,14.2,14.2,63,0.00,,,0.00,TxWx,2013-11-14 05:44:00,
2013-11-14 00:45:00,70.4,55.0,30.18,NNE,24,9.9,16.7,60,0.00,,,0.00,TxWx,2013-11-14 05:45:00,
2013-11-14 00:46:00,70.6,56.0,30.18,NE,46,12.4,12.4,60,0.00,,,0.00,TxWx,2013-11-14 05:46:00,
2013-11-14 00:47:00,70.8,57.0,30.18,ENE,69,9.9,12.4,61,0.00,,,0.00,TxWx,2013-11-14 05:47:00,
2013-11-14 00:49:00,70.7,57.0,30.18,ENE,69,17.3,17.3,62,0.00,,,0.00,TxWx,2013-11-14 05:49:00,
2013-11-14 00:50:00,70.6,57.0,30.19,NNE,24,13.0,13.0,62,0.00,,,0.00,TxWx,2013-11-14 05:50:00,
2013-11-14 00:51:00,70.7,57.0,30.19,ENE,69,13.0,14.2,62,0.00,,,0.00,TxWx,2013-11-14 05:51:00,
2013-11-14 00:52:00,70.6,57.0,30.19,NE,46,14.2,14.2,62,0.00,,,0.00,TxWx,2013-11-14 05:52:00,
2013-11-14 00:55:00,70.8,57.0,30.18,North,1,12.4,14.9,62,0.00,,,0.00,TxWx,2013-11-14 05:55:00,
2013-11-14 00:56:00,70.8,58.0,30.18,ENE,69,13.0,17.9,63,0.00,,,0.00,TxWx,2013-11-14 05:56:00,
2013-11-14 00:57:00,70.8,58.0,30.18,NNE,24,13.0,13.0,63,0.00,,,0.00,TxWx,2013-11-14 05:57:00,
2013-11-14 00:58:00,71.1,58.0,30.18,ESE,114,11.1,11.8,64,0.00,,,0.00,TxWx,2013-11-14 05:58:00,
2013-11-14 01:00:00,70.9,58.0,30.18,North,1,7.4,8.7,63,0.00,,,0.00,TxWx,2013-11-14 06:00:00,
2013-11-14 01:01:00,70.9,58.0,30.18,NNE,24,9.3,9.3,64,0.00,,,0.00,TxWx,2013-11-14 06:01:00,
2013-11-14 01:02:00,70.4,56.0,30.18,ENE,69,17.3,19.8,61,0.00,,,0.00,TxWx,2013-11-14 06:02:00,
2013-11-14 01:04:00,70.6,56.0,30.18,East,91,11.8,13.6,60,0.00,,,0.00,TxWx,2013-11-14 06:04:00,
2013-11-14 01:06:00,70.8,57.0,30.18,NE,46,12.4,14.9,61,0.00,,,0.00,TxWx,2013-11-14 06:06:00,
2013-11-14 01:07:00,70.8,58.0,30.18,NE,46,11.8,11.8,63,0.00,,,0.00,TxWx,2013-11-14 06:07:00,
2013-11-14 01:09:00,70.7,57.0,30.18,East,91,13.0,13.0,62,0.00,,,0.00,TxWx,2013-11-14 06:09:00,
2013-11-14 01:11:00,70.7,57.0,30.18,NE,46,8.7,8.7,62,0.00,,,0.00,TxWx,2013-11-14 06:11:00,
2013-11-14 01:12:00,70.7,57.0,30.18,East,91,12.4,12.4,61,0.00,,,0.00,TxWx,2013-11-14 06:12:00,
2013-11-14 01:13:00,70.9,57.0,30.18,NE,46,8.7,9.9,61,0.00,,,0.00,TxWx,2013-11-14 06:13:00,
2013-11-14 01:15:00,71.3,58.0,30.18,NE,46,12.4,16.1,63,0.00,,,0.00,TxWx,2013-11-14 06:15:00,
2013-11-14 01:16:00,71.2,58.0,30.18,NE,46,8.0,11.1,64,0.00,,,0.00,TxWx,2013-11-14 06:16:00,
2013-11-14 01:18:00,70.9,59.0,30.18,ESE,114,15.5,16.1,66,0.00,,,0.00,TxWx,2013-11-14 06:18:00,
2013-11-14 01:21:00,71.0,59.0,30.18,ENE,69,13.6,13.6,65,0.00,,,0.00,TxWx,2013-11-14 06:21:00,
2013-11-14 01:23:00,70.7,58.0,30.17,East,91,16.1,23.5,65,0.00,,,0.00,TxWx,2013-11-14 06:23:00,
2013-11-14 01:24:00,70.8,58.0,30.17,SSE,159,9.3,16.1,65,0.00,,,0.00,TxWx,2013-11-14 06:24:00,
2013-11-14 01:26:00,71.1,59.0,30.18,NNE,24,9.9,9.9,66,0.00,,,0.00,TxWx,2013-11-14 06:26:00,
2013-11-14 01:27:00,71.0,59.0,30.17,East,91,9.3,11.8,66,0.00,,,0.00,TxWx,2013-11-14 06:27:00,
2013-11-14 01:28:00,71.3,59.0,30.17,East,91,9.3,11.8,66,0.00,,,0.00,TxWx,2013-11-14 06:28:00,
2013-11-14 01:29:00,70.9,58.0,30.17,NNE,24,16.7,17.3,64,0.00,,,0.00,TxWx,2013-11-14 06:29:00,
2013-11-14 01:31:00,71.1,59.0,30.17,SE,136,16.1,16.7,65,0.00,,,0.00,TxWx,2013-11-14 06:31:00,
2013-11-14 01:32:00,70.7,58.0,30.17,NE,46,20.4,22.9,64,0.00,,,0.00,TxWx,2013-11-14 06:32:00,
2013-11-14 01:33:00,71.3,58.0,30.17,East,91,18.6,18.6,64,0.00,,,0.00,TxWx,2013-11-14 06:33:00,
2013-11-14 01:34:00,71.5,59.0,30.17,East,91,18.6,18.6,65,0.00,,,0.00,TxWx,2013-11-14 06:34:00,
2013-11-14 01:36:00,70.8,57.0,30.17,East,91,14.9,14.9,61,0.00,,,0.00,TxWx,2013-11-14 06:36:00,
2013-11-14 01:37:00,71.1,57.0,30.17,East,91,14.2,14.2,62,0.00,,,0.00,TxWx,2013-11-14 06:37:00,
2013-11-14 01:39:00,70.9,57.0,30.17,SSW,204,12.4,13.6,62,0.00,,,0.00,TxWx,2013-11-14 06:39:00,
2013-11-14 01:42:00,70.7,57.0,30.17,ENE,69,14.2,14.2,61,0.00,,,0.00,TxWx,2013-11-14 06:42:00,
2013-11-14 01:44:00,70.9,57.0,30.17,East,91,15.5,15.5,62,0.00,,,0.00,TxWx,2013-11-14 06:44:00,
2013-11-14 01:45:00,70.9,57.0,30.17,SE,136,14.9,16.7,62,0.00,,,0.00,TxWx,2013-11-14 06:45:00,
2013-11-14 01:47:00,70.7,57.0,30.17,East,91,11.8,11.8,61,0.00,,,0.00,TxWx,2013-11-14 06:47:00,
2013-11-14 01:49:00,70.7,57.0,30.17,North,1,6.8,18.6,61,0.00,,,0.00,TxWx,2013-11-14 06:49:00,
2013-11-14 01:50:00,70.7,56.0,30.17,East,91,11.8,21.0,60,0.00,,,0.00,TxWx,2013-11-14 06:50:00,
2013-11-14 01:52:00,71.3,58.0,30.17,East,91,17.9,21.7,63,0.00,,,0.00,TxWx,2013-11-14 06:52:00,
2013-11-14 01:53:00,71.1,58.0,30.17,East,91,22.9,22.9,63,0.00,,,0.00,TxWx,2013-11-14 06:53:00,
2013-11-14 01:54:00,70.8,57.0,30.17,NE,46,19.2,19.2,61,0.00,,,0.00,TxWx,2013-11-14 06:54:00,
2013-11-14 01:55:00,70.8,57.0,30.17,ENE,69,16.7,16.7,61,0.00,,,0.00,TxWx,2013-11-14 06:55:00,
2013-11-14 01:57:00,70.8,56.0,30.17,NE,46,17.3,19.2,59,0.00,,,0.00,TxWx,2013-11-14 06:57:00,
2013-11-14 01:58:00,71.3,57.0,30.17,East,91,18.6,18.6,62,0.00,,,0.00,TxWx,2013-11-14 06:58:00,
2013-11-14 01:59:00,70.9,55.0,30.17,East,91,18.6,20.4,58,0.00,,,0.00,TxWx,2013-11-14 06:59:00,
2013-11-14 02:00:00,71.0,56.0,30.17,East,91,22.9,22.9,59,0.00,,,0.00,TxWx,2013-11-14 07:00:00,
2013-11-14 02:02:00,71.2,56.0,30.17,ENE,69,16.1,16.1,59,0.00,,,0.00,TxWx,2013-11-14 07:02:00,
2013-11-14 02:03:00,70.8,56.0,30.17,East,91,19.2,19.2,60,0.00,,,0.00,TxWx,2013-11-14 07:03:00,
2013-11-14 02:05:00,71.0,56.0,30.17,SE,136,15.5,19.2,60,0.00,,,0.00,TxWx,2013-11-14 07:05:00,
2013-11-14 02:06:00,70.8,56.0,30.17,East,91,19.8,19.8,59,0.00,,,0.00,TxWx,2013-11-14 07:06:00,
2013-11-14 02:07:00,70.8,56.0,30.17,East,91,22.3,22.3,60,0.00,,,0.00,TxWx,2013-11-14 07:07:00,
2013-11-14 02:09:00,71.2,56.0,30.17,East,91,17.9,23.5,59,0.00,,,0.00,TxWx,2013-11-14 07:09:00,
2013-11-14 02:10:00,70.9,56.0,30.17,ENE,69,19.2,24.1,60,0.00,,,0.00,TxWx,2013-11-14 07:10:00,
2013-11-14 02:11:00,71.1,56.0,30.17,NE,46,21.0,21.0,60,0.00,,,0.00,TxWx,2013-11-14 07:11:00,
2013-11-14 02:12:00,71.0,57.0,30.17,NE,46,13.6,13.6,61,0.00,,,0.00,TxWx,2013-11-14 07:12:00,
2013-11-14 02:14:00,71.0,57.0,30.17,East,91,14.9,14.9,61,0.00,,,0.00,TxWx,2013-11-14 07:14:00,
2013-11-14 02:15:00,71.1,57.0,30.18,East,91,14.9,14.9,61,0.00,,,0.00,TxWx,2013-11-14 07:15:00,
2013-11-14 02:17:00,70.9,56.0,30.17,NE,46,14.9,18.6,60,0.00,,,0.00,TxWx,2013-11-14 07:17:00,
2013-11-14 02:18:00,70.9,57.0,30.17,ENE,69,7.4,14.2,61,0.00,,,0.00,TxWx,2013-11-14 07:18:00,
2013-11-14 02:19:00,71.0,57.0,30.17,East,91,16.1,18.6,61,0.00,,,0.00,TxWx,2013-11-14 07:19:00,
2013-11-14 02:20:00,71.1,58.0,30.17,ESE,114,13.0,13.0,63,0.00,,,0.00,TxWx,2013-11-14 07:20:00,
2013-11-14 02:21:00,71.0,58.0,30.17,North,1,20.4,20.4,63,0.00,,,0.00,TxWx,2013-11-14 07:21:00,
2013-11-14 02:22:00,71.1,57.0,30.17,NE,46,5.6,8.7,62,0.00,,,0.00,TxWx,2013-11-14 07:22:00,
2013-11-14 02:24:00,70.8,57.0,30.17,ENE,69,11.8,12.4,62,0.00,,,0.00,TxWx,2013-11-14 07:24:00,
2013-11-14 02:26:00,71.0,58.0,30.17,East,91,12.4,17.3,63,0.00,,,0.00,TxWx,2013-11-14 07:26:00,
2013-11-14 02:27:00,71.2,58.0,30.17,NNE,24,11.8,18.6,63,0.00,,,0.00,TxWx,2013-11-14 07:27:00,
2013-11-14 02:29:00,71.2,57.0,30.17,East,91,19.2,19.2,62,0.00,,,0.00,TxWx,2013-11-14 07:29:00,
2013-11-14 02:30:00,71.1,58.0,30.17,ESE,114,14.9,14.9,63,0.00,,,0.00,TxWx,2013-11-14 07:30:00,
2013-11-14 02:31:00,71.0,57.0,30.16,East,91,19.2,22.3,62,0.00,,,0.00,TxWx,2013-11-14 07:31:00,
2013-11-14 02:32:00,71.1,57.0,30.17,ENE,69,15.5,15.5,62,0.00,,,0.00,TxWx,2013-11-14 07:32:00,
2013-11-14 02:35:00,71.2,58.0,30.17,NNE,24,14.9,14.9,63,0.00,,,0.00,TxWx,2013-11-14 07:35:00,
2013-11-14 02:36:00,71.1,56.0,30.17,ENE,69,13.6,16.1,60,0.00,,,0.00,TxWx,2013-11-14 07:36:00,
2013-11-14 02:37:00,71.1,57.0,30.17,NE,46,17.9,17.9,61,0.00,,,0.00,TxWx,2013-11-14 07:37:00,
2013-11-14 02:40:00,71.3,58.0,30.17,ENE,69,10.5,20.4,63,0.00,,,0.00,TxWx,2013-11-14 07:40:00,
2013-11-14 02:41:00,71.2,57.0,30.17,ESE,114,15.5,15.5,61,0.00,,,0.00,TxWx,2013-11-14 07:41:00,
2013-11-14 02:42:00,71.1,57.0,30.16,East,91,22.3,22.3,62,0.00,,,0.00,TxWx,2013-11-14 07:42:00,
2013-11-14 02:43:00,71.1,57.0,30.17,North,1,9.9,11.1,61,0.00,,,0.00,TxWx,2013-11-14 07:43:00,
2013-11-14 02:45:00,71.0,57.0,30.16,North,1,16.7,16.7,61,0.00,,,0.00,TxWx,2013-11-14 07:45:00,
2013-11-14 02:47:00,71.1,57.0,30.16,East,91,14.2,14.9,61,0.00,,,0.00,TxWx,2013-11-14 07:47:00,
2013-11-14 02:48:00,71.2,57.0,30.16,East,91,8.0,9.3,62,0.00,,,0.00,TxWx,2013-11-14 07:48:00,
2013-11-14 02:50:00,70.8,56.0,30.16,SE,136,9.3,12.4,60,0.00,,,0.00,TxWx,2013-11-14 07:50:00,
2013-11-14 02:51:00,71.0,56.0,30.16,ESE,114,5.0,7.4,60,0.00,,,0.00,TxWx,2013-11-14 07:51:00,
2013-11-14 02:52:00,71.5,57.0,30.16,East,91,17.3,17.3,62,0.00,,,0.00,TxWx,2013-11-14 07:52:00,
2013-11-14 02:53:00,71.2,58.0,30.16,East,91,12.4,12.4,63,0.00,,,0.00,TxWx,2013-11-14 07:53:00,
2013-11-14 02:55:00,70.9,57.0,30.16,NE,46,11.8,14.2,61,0.00,,,0.00,TxWx,2013-11-14 07:55:00,
2013-11-14 02:56:00,71.2,57.0,30.16,NE,46,11.1,13.0,61,0.00,,,0.00,TxWx,2013-11-14 07:56:00,
2013-11-14 02:57:00,70.9,56.0,30.16,ENE,69,9.9,9.9,60,0.00,,,0.00,TxWx,2013-11-14 07:57:00,
2013-11-14 02:58:00,70.7,56.0,30.16,NE,46,13.6,16.7,60,0.00,,,0.00,TxWx,2013-11-14 07:58:00,
2013-11-14 02:59:00,71.3,57.0,30.16,East,91,12.4,13.0,61,0.00,,,0.00,TxWx,2013-11-14 07:59:00,
2013-11-14 03:00:00,71.0,57.0,30.17,NE,46,6.8,6.8,61,0.00,,,0.00,TxWx,2013-11-14 08:00:00,
2013-11-14 03:01:00,70.9,56.0,30.16,ENE,69,11.8,14.9,60,0.00,,,0.00,TxWx,2013-11-14 08:01:00,
2013-11-14 03:02:00,71.0,56.0,30.17,NNE,24,14.2,14.2,60,0.00,,,0.00,TxWx,2013-11-14 08:02:00,
2013-11-14 03:03:00,70.9,56.0,30.16,East,91,9.3,11.1,60,0.00,,,0.00,TxWx,2013-11-14 08:03:00,
2013-11-14 03:04:00,70.8,56.0,30.16,SSE,159,10.5,11.8,59,0.00,,,0.00,TxWx,2013-11-14 08:04:00,
2013-11-14 03:06:00,71.3,58.0,30.16,East,91,14.2,14.2,64,0.00,,,0.00,TxWx,2013-11-14 08:06:00,
2013-11-14 03:07:00,71.0,57.0,30.17,North,1,17.9,17.9,62,0.00,,,0.00,TxWx,2013-11-14 08:07:00,
2013-11-14 03:09:00,71.0,56.0,30.17,East,91,11.8,13.6,60,0.00,,,0.00,TxWx,2013-11-14 08:09:00,
2013-11-14 03:10:00,71.3,58.0,30.17,ENE,69,9.9,10.5,63,0.00,,,0.00,TxWx,2013-11-14 08:10:00,
2013-11-14 03:11:00,70.7,57.0,30.17,NNE,24,11.1,11.1,61,0.00,,,0.00,TxWx,2013-11-14 08:11:00,
2013-11-14 03:12:00,71.0,57.0,30.17,ENE,69,16.1,16.1,61,0.00,,,0.00,TxWx,2013-11-14 08:12:00,
2013-11-14 03:13:00,70.8,57.0,30.17,ENE,69,13.0,13.0,61,0.00,,,0.00,TxWx,2013-11-14 08:13:00,
2013-11-14 03:15:00,70.7,57.0,30.17,ENE,69,13.6,13.6,62,0.00,,,0.00,TxWx,2013-11-14 08:15:00,
2013-11-14 03:16:00,70.7,57.0,30.17,East,91,13.6,13.6,61,0.00,,,0.00,TxWx,2013-11-14 08:16:00,
2013-11-14 03:17:00,71.0,57.0,30.17,NE,46,12.4,12.4,62,0.00,,,0.00,TxWx,2013-11-14 08:17:00,
2013-11-14 03:18:00,70.6,57.0,30.17,East,91,15.5,17.9,62,0.00,,,0.00,TxWx,2013-11-14 08:18:00,
2013-11-14 03:21:00,70.8,56.0,30.16,ENE,69,9.9,11.1,60,0.00,,,0.00,TxWx,2013-11-14 08:21:00,
2013-11-14 03:22:00,70.7,57.0,30.17,East,91,15.5,15.5,61,0.00,,,0.00,TxWx,2013-11-14 08:22:00,
2013-11-14 03:23:00,70.6,56.0,30.17,SE,136,13.6,13.6,60,0.00,,,0.00,TxWx,2013-11-14 08:23:00,
2013-11-14 03:26:00,70.9,57.0,30.16,East,91,14.2,17.3,61,0.00,,,0.00,TxWx,2013-11-14 08:26:00,
2013-11-14 03:27:00,70.7,56.0,30.17,East,91,14.2,17.3,59,0.00,,,0.00,TxWx,2013-11-14 08:27:00,
2013-11-14 03:28:00,71.2,57.0,30.17,East,91,13.6,13.6,61,0.00,,,0.00,TxWx,2013-11-14 08:28:00,
2013-11-14 03:29:00,71.1,57.0,30.17,NE,46,10.5,10.5,62,0.00,,,0.00,TxWx,2013-11-14 08:29:00,
2013-11-14 03:31:00,70.9,58.0,30.17,East,91,15.5,15.5,64,0.00,,,0.00,TxWx,2013-11-14 08:31:00,
2013-11-14 03:32:00,70.8,57.0,30.17,East,91,16.7,16.7,61,0.00,,,0.00,TxWx,2013-11-14 08:32:00,
2013-11-14 03:34:00,70.7,56.0,30.17,ENE,69,14.2,14.2,60,0.00,,,0.00,TxWx,2013-11-14 08:34:00,
2013-11-14 03:37:00,71.0,57.0,30.17,ENE,69,11.1,11.1,62,0.00,,,0.00,TxWx,2013-11-14 08:37:00,
2013-11-14 03:38:00,71.3,58.0,30.17,NE,46,11.8,16.1,63,0.00,,,0.00,TxWx,2013-11-14 08:38:00,
2013-11-14 03:39:00,70.7,57.0,30.17,East,91,14.2,17.9,61,0.00,,,0.00,TxWx,2013-11-14 08:39:00,
2013-11-14 03:42:00,71.0,57.0,30.17,East,91,13.0,13.0,61,0.00,,,0.00,TxWx,2013-11-14 08:42:00,
2013-11-14 03:43:00,71.1,57.0,30.16,East,91,14.2,16.7,62,0.00,,,0.00,TxWx,2013-11-14 08:43:00,
2013-11-14 03:44:00,70.9,57.0,30.16,ESE,114,11.1,11.8,61,0.00,,,0.00,TxWx,2013-11-14 08:44:00,
2013-11-14 03:47:00,71.1,57.0,30.16,East,91,11.8,11.8,62,0.00,,,0.00,TxWx,2013-11-14 08:47:00,
2013-11-14 03:48:00,70.9,57.0,30.16,East,91,16.1,22.3,61,0.00,,,0.00,TxWx,2013-11-14 08:48:00,
2013-11-14 03:49:00,71.4,57.0,30.16,NE,46,15.5,15.5,62,0.00,,,0.00,TxWx,2013-11-14 08:49:00,
2013-11-14 03:52:00,71.5,59.0,30.16,ENE,69,14.2,14.2,63,0.00,,,0.00,TxWx,2013-11-14 08:52:00,
2013-11-14 03:54:00,71.1,58.0,30.16,NNE,24,13.0,13.0,63,0.00,,,0.00,TxWx,2013-11-14 08:54:00,
2013-11-14 03:55:00,71.1,57.0,30.16,East,91,6.8,9.9,62,0.00,,,0.00,TxWx,2013-11-14 08:55:00,
2013-11-14 03:57:00,71.3,57.0,30.16,East,91,11.8,13.6,62,0.00,,,0.00,TxWx,2013-11-14 08:57:00,
2013-11-14 03:59:00,71.0,57.0,30.16,ENE,69,16.7,16.7,61,0.00,,,0.00,TxWx,2013-11-14 08:59:00,
2013-11-14 04:00:00,71.1,56.0,30.17,East,91,14.2,14.2,59,0.00,,,0.00,TxWx,2013-11-14 09:00:00,
2013-11-14 04:01:00,71.1,57.0,30.17,ENE,69,13.6,15.5,61,0.00,,,0.00,TxWx,2013-11-14 09:01:00,
2013-11-14 04:02:00,71.4,57.0,30.17,East,91,15.5,15.5,62,0.00,,,0.00,TxWx,2013-11-14 09:02:00,
2013-11-14 04:04:00,71.2,58.0,30.17,ENE,69,17.9,20.4,63,0.00,,,0.00,TxWx,2013-11-14 09:04:00,
2013-11-14 04:05:00,71.2,58.0,30.17,ENE,69,14.9,19.2,63,0.00,,,0.00,TxWx,2013-11-14 09:05:00,
2013-11-14 04:06:00,71.7,60.0,30.17,ESE,114,16.1,16.1,66,0.00,,,0.00,TxWx,2013-11-14 09:06:00,
2013-11-14 04:07:00,71.3,58.0,30.17,East,91,16.1,18.6,65,0.00,,,0.00,TxWx,2013-11-14 09:07:00,
2013-11-14 04:08:00,71.5,60.0,30.16,East,91,17.9,17.9,66,0.00,,,0.00,TxWx,2013-11-14 09:08:00,
2013-11-14 04:10:00,71.2,58.0,30.17,NE,46,17.9,18.6,64,0.00,,,0.00,TxWx,2013-11-14 09:10:00,
2013-11-14 04:11:00,71.2,58.0,30.16,NNE,24,10.5,10.5,64,0.00,,,0.00,TxWx,2013-11-14 09:11:00,
2013-11-14 04:13:00,71.0,58.0,30.16,ESE,114,13.6,19.8,63,0.00,,,0.00,TxWx,2013-11-14 09:13:00,
2013-11-14 04:15:00,71.2,59.0,30.16,ESE,114,16.7,18.6,66,0.00,,,0.00,TxWx,2013-11-14 09:15:00,
2013-11-14 04:16:00,71.1,59.0,30.16,East,91,15.5,19.8,65,0.00,,,0.00,TxWx,2013-11-14 09:16:00,
2013-11-14 04:17:00,71.0,59.0,30.16,NNE,24,16.7,16.7,65,0.00,,,0.00,TxWx,2013-11-14 09:17:00,
2013-11-14 04:18:00,70.8,59.0,30.15,ENE,69,16.7,16.7,65,0.00,,,0.00,TxWx,2013-11-14 09:18:00,
2013-11-14 04:19:00,71.0,58.0,30.16,ESE,114,22.9,22.9,64,0.00,,,0.00,TxWx,2013-11-14 09:19:00,
2013-11-14 04:20:00,70.9,59.0,30.16,ENE,69,16.7,19.2,66,0.00,,,0.00,TxWx,2013-11-14 09:20:00,
2013-11-14 04:21:00,71.1,59.0,30.16,ENE,69,20.4,20.4,66,0.00,,,0.00,TxWx,2013-11-14 09:21:00,
2013-11-14 04:22:00,71.0,58.0,30.16,East,91,21.0,21.0,65,0.00,,,0.00,TxWx,2013-11-14 09:22:00,
2013-11-14 04:23:00,70.9,58.0,30.16,East,91,14.2,14.9,64,0.00,,,0.00,TxWx,2013-11-14 09:23:00,
2013-11-14 04:24:00,71.2,59.0,30.16,ENE,69,18.6,18.6,65,0.00,,,0.00,TxWx,2013-11-14 09:24:00,
2013-11-14 04:25:00,71.3,59.0,30.16,NE,46,17.9,23.5,67,0.00,,,0.00,TxWx,2013-11-14 09:25:00,
2013-11-14 04:26:00,71.1,59.0,30.16,ENE,69,16.7,16.7,66,0.00,,,0.00,TxWx,2013-11-14 09:26:00,
2013-11-14 04:28:00,71.1,59.0,30.16,East,91,18.6,18.6,66,0.00,,,0.00,TxWx,2013-11-14 09:28:00,
2013-11-14 04:29:00,71.2,59.0,30.16,East,91,18.6,18.6,67,0.00,,,0.00,TxWx,2013-11-14 09:29:00,
2013-11-14 04:30:00,71.0,59.0,30.16,East,91,20.4,21.0,66,0.00,,,0.00,TxWx,2013-11-14 09:30:00,
2013-11-14 04:31:00,71.0,58.0,30.16,East,91,17.3,17.3,65,0.00,,,0.00,TxWx,2013-11-14 09:31:00,
2013-11-14 04:33:00,71.0,58.0,30.16,North,1,17.3,20.4,65,0.00,,,0.00,TxWx,2013-11-14 09:33:00,
2013-11-14 04:34:00,71.6,60.0,30.17,East,91,15.5,17.9,67,0.00,,,0.00,TxWx,2013-11-14 09:34:00,
2013-11-14 04:36:00,70.8,58.0,30.17,East,91,18.6,18.6,65,0.00,,,0.00,TxWx,2013-11-14 09:36:00,
2013-11-14 04:37:00,71.0,58.0,30.17,SE,136,10.5,10.5,65,0.00,,,0.00,TxWx,2013-11-14 09:37:00,
2013-11-14 04:38:00,71.0,58.0,30.17,NE,46,16.7,16.7,65,0.00,,,0.00,TxWx,2013-11-14 09:38:00,
2013-11-14 04:39:00,70.9,58.0,30.17,ESE,114,9.3,14.9,64,0.00,,,0.00,TxWx,2013-11-14 09:39:00,
2013-11-14 04:40:00,71.2,59.0,30.17,East,91,8.7,11.1,65,0.00,,,0.00,TxWx,2013-11-14 09:40:00,
2013-11-14 04:41:00,71.0,59.0,30.17,East,91,11.8,11.8,66,0.00,,,0.00,TxWx,2013-11-14 09:41:00,
2013-11-14 04:42:00,71.1,59.0,30.17,NE,46,22.3,22.3,66,0.00,,,0.00,TxWx,2013-11-14 09:42:00,
2013-11-14 04:43:00,71.0,59.0,30.17,East,91,18.6,19.2,66,0.00,,,0.00,TxWx,2013-11-14 09:43:00,
2013-11-14 04:44:00,70.9,59.0,30.16,ENE,69,17.9,23.5,66,0.00,,,0.00,TxWx,2013-11-14 09:44:00,
2013-11-14 04:45:00,71.0,59.0,30.16,ESE,114,19.2,21.7,67,0.00,,,0.00,TxWx,2013-11-14 09:45:00,
2013-11-14 04:46:00,70.8,59.0,30.16,ENE,69,13.0,14.9,67,0.00,,,0.00,TxWx,2013-11-14 09:46:00,
2013-11-14 04:47:00,71.0,59.0,30.16,ESE,114,22.9,22.9,67,0.00,,,0.00,TxWx,2013-11-14 09:47:00,
2013-11-14 04:48:00,70.8,59.0,30.16,East,91,20.4,20.4,66,0.00,,,0.00,TxWx,2013-11-14 09:48:00,
2013-11-14 04:49:00,71.2,59.0,30.16,East,91,14.2,25.4,67,0.00,,,0.00,TxWx,2013-11-14 09:49:00,
2013-11-14 04:50:00,70.8,59.0,30.16,ENE,69,17.9,17.9,66,0.00,,,0.00,TxWx,2013-11-14 09:50:00,
2013-11-14 04:52:00,71.2,60.0,30.16,East,91,26.6,26.6,68,0.00,,,0.00,TxWx,2013-11-14 09:52:00,
2013-11-14 04:53:00,70.9,59.0,30.16,ESE,114,24.1,24.1,65,0.00,,,0.00,TxWx,2013-11-14 09:53:00,
2013-11-14 04:55:00,70.7,59.0,30.16,ESE,114,17.9,17.9,66,0.00,,,0.00,TxWx,2013-11-14 09:55:00,
2013-11-14 04:57:00,70.6,58.0,30.15,SE,136,23.5,23.5,65,0.00,,,0.00,TxWx,2013-11-14 09:57:00,
2013-11-14 04:58:00,71.0,58.0,30.15,ENE,69,16.1,16.1,65,0.00,,,0.00,TxWx,2013-11-14 09:58:00,
2013-11-14 04:59:00,70.8,58.0,30.16,East,91,23.5,24.1,65,0.00,,,0.00,TxWx,2013-11-14 09:59:00,
2013-11-14 05:00:00,71.0,59.0,30.16,East,91,13.6,13.6,66,0.00,,,0.00,TxWx,2013-11-14 10:00:00,
2013-11-14 05:01:00,71.1,59.0,30.16,ENE,69,11.1,11.1,66,0.00,,,0.00,TxWx,2013-11-14 10:01:00,
2013-11-14 05:02:00,71.0,59.0,30.16,ENE,69,21.7,26.0,67,0.00,,,0.00,TxWx,2013-11-14 10:02:00,
2013-11-14 05:03:00,70.6,59.0,30.16,ENE,69,15.5,17.3,65,0.00,,,0.00,TxWx,2013-11-14 10:03:00,
2013-11-14 05:04:00,70.9,59.0,30.16,ENE,69,14.9,21.7,66,0.00,,,0.00,TxWx,2013-11-14 10:04:00,
2013-11-14 05:06:00,70.9,58.0,30.16,ENE,69,18.6,19.2,65,0.00,,,0.00,TxWx,2013-11-14 10:06:00,
2013-11-14 05:07:00,71.2,59.0,30.16,East,91,11.8,13.0,66,0.00,,,0.00,TxWx,2013-11-14 10:07:00,
2013-11-14 05:08:00,70.9,59.0,30.16,NE,46,16.7,21.0,65,0.00,,,0.00,TxWx,2013-11-14 10:08:00,
2013-11-14 05:09:00,71.1,59.0,30.16,SE,136,14.2,14.9,66,0.00,,,0.00,TxWx,2013-11-14 10:09:00,
2013-11-14 05:10:00,70.9,59.0,30.15,East,91,16.7,16.7,66,0.00,,,0.00,TxWx,2013-11-14 10:10:00,
2013-11-14 05:11:00,70.9,58.0,30.15,East,91,28.5,28.5,64,0.00,,,0.00,TxWx,2013-11-14 10:11:00,
2013-11-14 05:12:00,70.7,58.0,30.16,ENE,69,16.7,17.3,64,0.00,,,0.00,TxWx,2013-11-14 10:12:00,
2013-11-14 05:13:00,71.1,58.0,30.16,ENE,69,24.8,25.4,64,0.00,,,0.00,TxWx,2013-11-14 10:13:00,
2013-11-14 05:14:00,71.2,57.0,30.16,East,91,21.7,21.7,62,0.00,,,0.00,TxWx,2013-11-14 10:14:00,
2013-11-14 05:15:00,71.5,59.0,30.16,East,91,22.3,22.3,65,0.00,,,0.00,TxWx,2013-11-14 10:15:00,
2013-11-14 05:16:00,71.5,59.0,30.16,East,91,23.5,23.5,65,0.00,,,0.00,TxWx,2013-11-14 10:16:00,
2013-11-14 05:17:00,71.2,58.0,30.16,East,91,21.0,21.0,65,0.00,,,0.00,TxWx,2013-11-14 10:17:00,
2013-11-14 05:19:00,71.2,58.0,30.16,East,91,21.7,21.7,64,0.00,,,0.00,TxWx,2013-11-14 10:19:00,
2013-11-14 05:21:00,71.1,58.0,30.16,East,91,21.7,21.7,63,0.00,,,0.00,TxWx,2013-11-14 10:21:00,
2013-11-14 05:22:00,71.1,57.0,30.16,ESE,114,21.0,22.3,61,0.00,,,0.00,TxWx,2013-11-14 10:22:00,
2013-11-14 05:24:00,71.1,58.0,30.16,ENE,69,17.9,21.0,63,0.00,,,0.00,TxWx,2013-11-14 10:24:00,
2013-11-14 05:26:00,71.0,57.0,30.16,East,91,21.0,21.0,62,0.00,,,0.00,TxWx,2013-11-14 10:26:00,
2013-11-14 05:27:00,71.2,57.0,30.16,ENE,69,18.6,21.0,62,0.00,,,0.00,TxWx,2013-11-14 10:27:00,
2013-11-14 05:30:00,71.5,58.0,30.17,ENE,69,22.3,22.3,64,0.00,,,0.00,TxWx,2013-11-14 10:30:00,
2013-11-14 05:31:00,71.0,58.0,30.16,East,91,13.0,15.5,63,0.00,,,0.00,TxWx,2013-11-14 10:31:00,
2013-11-14 05:32:00,71.1,57.0,30.16,East,91,23.5,23.5,62,0.00,,,0.00,TxWx,2013-11-14 10:32:00,
2013-11-14 05:33:00,71.4,58.0,30.16,East,91,12.4,14.9,63,0.00,,,0.00,TxWx,2013-11-14 10:33:00,
2013-11-14 05:35:00,71.2,57.0,30.16,ESE,114,18.6,18.6,61,0.00,,,0.00,TxWx,2013-11-14 10:35:00,
2013-11-14 05:37:00,71.4,56.0,30.17,ENE,69,17.9,19.8,60,0.00,,,0.00,TxWx,2013-11-14 10:37:00,
2013-11-14 05:38:00,71.3,57.0,30.17,East,91,22.3,22.3,62,0.00,,,0.00,TxWx,2013-11-14 10:38:00,
2013-11-14 05:40:00,71.3,57.0,30.17,ENE,69,14.9,19.2,61,0.00,,,0.00,TxWx,2013-11-14 10:40:00,
2013-11-14 05:42:00,71.3,56.0,30.17,East,91,14.9,16.7,60,0.00,,,0.00,TxWx,2013-11-14 10:42:00,
2013-11-14 05:43:00,71.2,55.0,30.17,East,91,21.0,21.0,58,0.00,,,0.00,TxWx,2013-11-14 10:43:00,
2013-11-14 05:44:00,71.8,58.0,30.17,ESE,114,13.6,14.9,61,0.00,,,0.00,TxWx,2013-11-14 10:44:00,
2013-11-14 05:46:00,71.5,57.0,30.18,ENE,69,17.3,17.3,61,0.00,,,0.00,TxWx,2013-11-14 10:46:00,
2013-11-14 05:47:00,71.3,57.0,30.18,SSE,159,13.6,13.6,61,0.00,,,0.00,TxWx,2013-11-14 10:47:00,
2013-11-14 05:48:00,71.7,58.0,30.18,East,91,13.0,14.9,62,0.00,,,0.00,TxWx,2013-11-14 10:48:00,
2013-11-14 05:49:00,71.3,57.0,30.18,East,91,18.6,18.6,61,0.00,,,0.00,TxWx,2013-11-14 10:49:00,
2013-11-14 05:51:00,71.5,57.0,30.18,ENE,69,12.4,13.6,61,0.00,,,0.00,TxWx,2013-11-14 10:51:00,
2013-11-14 05:52:00,71.3,56.0,30.18,ESE,114,18.6,18.6,60,0.00,,,0.00,TxWx,2013-11-14 10:52:00,
2013-11-14 05:53:00,71.5,57.0,30.18,East,91,15.5,16.1,60,0.00,,,0.00,TxWx,2013-11-14 10:53:00,
2013-11-14 05:54:00,71.7,58.0,30.18,East,91,11.1,14.2,62,0.00,,,0.00,TxWx,2013-11-14 10:54:00,
2013-11-14 05:56:00,71.3,55.0,30.18,ENE,69,14.9,14.9,57,0.00,,,0.00,TxWx,2013-11-14 10:56:00,
2013-11-14 05:57:00,71.4,55.0,30.18,ESE,114,11.1,12.4,57,0.00,,,0.00,TxWx,2013-11-14 10:57:00,
2013-11-14 05:58:00,71.6,57.0,30.18,East,91,13.6,13.6,60,0.00,,,0.00,TxWx,2013-11-14 10:58:00,
2013-11-14 06:00:00,71.5,56.0,30.18,ENE,69,9.3,9.9,57,0.00,,,0.00,TxWx,2013-11-14 11:00:00,
2013-11-14 06:01:00,71.3,55.0,30.18,ENE,69,17.3,17.3,57,0.00,,,0.00,TxWx,2013-11-14 11:01:00,
2013-11-14 06:02:00,71.6,57.0,30.18,East,91,8.7,9.9,59,0.00,,,0.00,TxWx,2013-11-14 11:02:00,
2013-11-14 06:03:00,71.4,56.0,30.18,NE,46,14.9,14.9,59,0.00,,,0.00,TxWx,2013-11-14 11:03:00,
2013-11-14 06:05:00,71.3,55.0,30.18,East,91,13.0,13.0,58,0.00,,,0.00,TxWx,2013-11-14 11:05:00,
2013-11-14 06:07:00,71.6,57.0,30.18,East,91,15.5,16.7,60,0.00,,,0.00,TxWx,2013-11-14 11:07:00,
2013-11-14 06:08:00,71.5,57.0,30.17,ENE,69,17.9,17.9,59,0.00,,,0.00,TxWx,2013-11-14 11:08:00,
2013-11-14 06:09:00,71.3,54.0,30.18,ENE,69,16.1,22.9,56,0.00,,,0.00,TxWx,2013-11-14 11:09:00,
2013-11-14 06:10:00,71.5,55.0,30.18,East,91,22.3,22.9,58,0.00,,,0.00,TxWx,2013-11-14 11:10:00,
2013-11-14 06:12:00,71.3,55.0,30.18,NNE,24,9.9,14.2,58,0.00,,,0.00,TxWx,2013-11-14 11:12:00,
2013-11-14 06:13:00,71.3,55.0,30.18,ENE,69,14.2,14.2,57,0.00,,,0.00,TxWx,2013-11-14 11:13:00,
2013-11-14 06:14:00,71.3,55.0,30.18,ENE,69,18.6,18.6,58,0.00,,,0.00,TxWx,2013-11-14 11:14:00,
2013-11-14 06:15:00,71.5,56.0,30.18,East,91,16.1,16.7,58,0.00,,,0.00,TxWx,2013-11-14 11:15:00,
2013-11-14 06:17:00,71.5,56.0,30.18,East,91,13.0,13.0,60,0.00,,,0.00,TxWx,2013-11-14 11:17:00,
2013-11-14 06:18:00,71.3,57.0,30.18,NE,46,17.3,20.4,61,0.00,,,0.00,TxWx,2013-11-14 11:18:00,
2013-11-14 06:19:00,71.5,58.0,30.18,NE,46,13.0,18.6,61,0.00,,,0.00,TxWx,2013-11-14 11:19:00,
2013-11-14 06:20:00,71.2,56.0,30.18,NE,46,19.2,20.4,60,0.00,,,0.00,TxWx,2013-11-14 11:20:00,
2013-11-14 06:21:00,71.4,56.0,30.18,ENE,69,17.3,17.3,60,0.00,,,0.00,TxWx,2013-11-14 11:21:00,
2013-11-14 06:23:00,71.3,57.0,30.18,East,91,14.9,14.9,61,0.00,,,0.00,TxWx,2013-11-14 11:23:00,
2013-11-14 06:24:00,71.3,57.0,30.18,ESE,114,12.4,13.6,62,0.00,,,0.00,TxWx,2013-11-14 11:24:00,
2013-11-14 06:25:00,71.6,58.0,30.18,East,91,14.9,14.9,62,0.00,,,0.00,TxWx,2013-11-14 11:25:00,
2013-11-14 06:26:00,71.7,59.0,30.18,NE,46,11.8,13.6,64,0.00,,,0.00,TxWx,2013-11-14 11:26:00,
2013-11-14 06:28:00,71.2,57.0,30.18,East,91,16.1,16.1,62,0.00,,,0.00,TxWx,2013-11-14 11:28:00,
2013-11-14 06:29:00,71.3,57.0,30.18,East,91,8.0,14.2,62,0.00,,,0.00,TxWx,2013-11-14 11:29:00,
2013-11-14 06:30:00,71.1,57.0,30.18,NNE,24,6.8,9.3,61,0.00,,,0.00,TxWx,2013-11-14 11:30:00,
2013-11-14 06:31:00,70.9,57.0,30.19,East,91,9.9,9.9,61,0.00,,,0.00,TxWx,2013-11-14 11:31:00,
2013-11-14 06:32:00,71.4,57.0,30.19,NE,46,11.1,11.1,62,0.00,,,0.00,TxWx,2013-11-14 11:32:00,
2013-11-14 06:33:00,71.3,58.0,30.19,ENE,69,11.8,13.6,63,0.00,,,0.00,TxWx,2013-11-14 11:33:00,
2013-11-14 06:34:00,71.5,58.0,30.19,ENE,69,8.7,12.4,64,0.00,,,0.00,TxWx,2013-11-14 11:34:00,
2013-11-14 06:35:00,71.1,57.0,30.19,ENE,69,6.2,7.4,62,0.00,,,0.00,TxWx,2013-11-14 11:35:00,
2013-11-14 06:36:00,71.1,57.0,30.19,NE,46,9.3,10.5,62,0.00,,,0.00,TxWx,2013-11-14 11:36:00,
2013-11-14 06:37:00,71.3,58.0,30.19,East,91,9.9,9.9,63,0.00,,,0.00,TxWx,2013-11-14 11:37:00,
2013-11-14 06:38:00,71.1,58.0,30.19,ENE,69,15.5,16.7,63,0.00,,,0.00,TxWx,2013-11-14 11:38:00,
2013-11-14 06:39:00,71.3,58.0,30.19,NE,46,19.8,19.8,64,0.00,,,0.00,TxWx,2013-11-14 11:39:00,
2013-11-14 06:40:00,71.1,58.0,30.18,East,91,26.6,29.1,65,0.00,,,0.00,TxWx,2013-11-14 11:40:00,
2013-11-14 06:41:00,70.9,58.0,30.19,ESE,114,19.2,19.2,64,0.00,,,0.00,TxWx,2013-11-14 11:41:00,
2013-11-14 06:42:00,70.9,59.0,30.19,ESE,114,22.9,22.9,65,0.00,,,0.00,TxWx,2013-11-14 11:42:00,
2013-11-14 06:44:00,70.8,58.0,30.19,East,91,24.8,24.8,63,0.00,,,0.00,TxWx,2013-11-14 11:44:00,
2013-11-14 06:45:00,70.8,58.0,30.19,ESE,114,19.8,22.3,64,0.00,,,0.00,TxWx,2013-11-14 11:45:00,
2013-11-14 06:46:00,70.8,58.0,30.20,ENE,69,18.6,19.8,64,0.00,,,0.00,TxWx,2013-11-14 11:46:00,
2013-11-14 06:47:00,70.9,58.0,30.20,East,91,22.9,22.9,64,0.00,,,0.00,TxWx,2013-11-14 11:47:00,
2013-11-14 06:49:00,70.8,59.0,30.20,East,91,16.7,16.7,66,0.00,,,0.00,TxWx,2013-11-14 11:49:00,
2013-11-14 06:50:00,71.1,59.0,30.20,ENE,69,15.5,15.5,67,0.00,,,0.00,TxWx,2013-11-14 11:50:00,
2013-11-14 06:52:00,71.1,60.0,30.20,ENE,69,16.1,16.1,68,0.00,,,0.00,TxWx,2013-11-14 11:52:00,
2013-11-14 06:53:00,70.8,60.0,30.19,East,91,13.6,19.8,68,0.00,,,0.00,TxWx,2013-11-14 11:53:00,
2013-11-14 06:54:00,70.9,60.0,30.19,East,91,13.0,13.0,69,0.00,,,0.00,TxWx,2013-11-14 11:54:00,
2013-11-14 06:55:00,70.8,60.0,30.19,East,91,10.5,15.5,68,0.00,,,0.00,TxWx,2013-11-14 11:55:00,
2013-11-14 06:56:00,71.1,60.0,30.19,SE,136,11.1,13.0,69,0.00,,,0.00,TxWx,2013-11-14 11:56:00,
2013-11-14 06:57:00,70.7,59.0,30.19,ENE,69,16.7,18.6,67,0.00,,,0.00,TxWx,2013-11-14 11:57:00,
2013-11-14 06:58:00,70.9,59.0,30.19,ESE,114,23.5,23.5,67,0.00,,,0.00,TxWx,2013-11-14 11:58:00,
2013-11-14 06:59:00,71.1,59.0,30.19,ESE,114,14.2,16.7,67,0.00,,,0.00,TxWx,2013-11-14 11:59:00,
2013-11-14 07:00:00,71.1,59.0,30.19,East,91,22.3,22.3,66,0.00,,,0.00,TxWx,2013-11-14 12:00:00,
2013-11-14 07:01:00,71.2,59.0,30.19,SE,136,26.0,26.0,67,0.00,,,0.00,TxWx,2013-11-14 12:01:00,
2013-11-14 07:03:00,71.5,60.0,30.19,East,91,21.7,21.7,68,0.00,,,0.00,TxWx,2013-11-14 12:03:00,
2013-11-14 07:05:00,71.2,58.0,30.19,East,91,17.9,17.9,65,0.00,,,0.00,TxWx,2013-11-14 12:05:00,
2013-11-14 07:06:00,71.5,60.0,30.19,ENE,69,15.5,15.5,65,0.00,,,0.00,TxWx,2013-11-14 12:06:00,
2013-11-14 07:08:00,71.4,59.0,30.19,East,91,21.7,21.7,65,0.00,,,0.00,TxWx,2013-11-14 12:08:00,
2013-11-14 07:09:00,72.0,60.0,30.19,ENE,69,17.3,21.0,67,0.00,,,0.00,TxWx,2013-11-14 12:09:00,
2013-11-14 07:10:00,71.6,60.0,30.19,East,91,23.5,23.5,66,0.00,,,0.00,TxWx,2013-11-14 12:10:00,
2013-11-14 07:11:00,71.4,59.0,30.19,East,91,21.7,21.7,65,0.00,,,0.00,TxWx,2013-11-14 12:11:00,
2013-11-14 07:13:00,71.5,59.0,30.19,ENE,69,21.7,24.8,66,0.00,,,0.00,TxWx,2013-11-14 12:13:00,
2013-11-14 07:14:00,71.6,60.0,30.19,ESE,114,17.9,21.0,65,0.00,,,0.00,TxWx,2013-11-14 12:14:00,
2013-11-14 07:15:00,71.6,59.0,30.18,East,91,29.7,29.7,65,0.00,,,0.00,TxWx,2013-11-14 12:15:00,
2013-11-14 07:16:00,71.6,60.0,30.19,ESE,114,23.5,23.5,65,0.00,,,0.00,TxWx,2013-11-14 12:16:00,
2013-11-14 07:19:00,71.4,59.0,30.19,East,91,19.8,19.8,66,0.00,,,0.00,TxWx,2013-11-14 12:19:00,
2013-11-14 07:20:00,71.4,59.0,30.19,NE,46,15.5,21.0,67,0.00,,,0.00,TxWx,2013-11-14 12:20:00,
2013-11-14 07:21:00,71.1,59.0,30.19,East,91,19.2,19.2,65,0.00,,,0.00,TxWx,2013-11-14 12:21:00,
2013-11-14 07:22:00,72.1,61.0,30.19,ENE,69,20.4,20.4,68,0.00,,,0.00,TxWx,2013-11-14 12:22:00,
2013-11-14 07:24:00,71.9,61.0,30.20,NE,46,19.8,19.8,68,0.00,,,0.00,TxWx,2013-11-14 12:24:00,
2013-11-14 07:25:00,71.2,59.0,30.20,ESE,114,16.1,16.1,67,0.00,,,0.00,TxWx,2013-11-14 12:25:00,
2013-11-14 07:26:00,71.1,59.0,30.20,ESE,114,15.5,16.7,66,0.00,,,0.00,TxWx,2013-11-14 12:26:00,
2013-11-14 07:27:00,71.3,59.0,30.20,ESE,114,22.3,22.3,66,0.00,,,0.00,TxWx,2013-11-14 12:27:00,
2013-11-14 07:29:00,71.1,59.0,30.20,ENE,69,18.6,19.2,65,0.00,,,0.00,TxWx,2013-11-14 12:29:00,
2013-11-14 07:31:00,71.4,59.0,30.20,ESE,114,25.4,25.4,66,0.00,,,0.00,TxWx,2013-11-14 12:31:00,
2013-11-14 07:32:00,71.3,59.0,30.20,East,91,21.0,24.1,66,0.00,,,0.00,TxWx,2013-11-14 12:32:00,
2013-11-14 07:34:00,71.4,58.0,30.21,ENE,69,13.0,13.0,65,0.00,,,0.00,TxWx,2013-11-14 12:34:00,
2013-11-14 07:36:00,71.5,60.0,30.21,East,91,24.8,24.8,65,0.00,,,0.00,TxWx,2013-11-14 12:36:00,
2013-11-14 07:37:00,71.4,59.0,30.21,East,91,22.9,22.9,65,0.00,,,0.00,TxWx,2013-11-14 12:37:00,
2013-11-14 07:40:00,71.3,58.0,30.21,East,91,19.8,25.4,64,0.00,,,0.00,TxWx,2013-11-14 12:40:00,
2013-11-14 07:41:00,71.5,59.0,30.21,East,91,15.5,15.5,65,0.00,,,0.00,TxWx,2013-11-14 12:41:00,
2013-11-14 07:42:00,71.2,58.0,30.21,East,91,18.6,18.6,64,0.00,,,0.00,TxWx,2013-11-14 12:42:00,
2013-11-14 07:45:00,71.5,58.0,30.21,ENE,69,17.3,21.7,63,0.00,,,0.00,TxWx,2013-11-14 12:45:00,
2013-11-14 07:46:00,71.9,59.0,30.21,East,91,14.9,16.1,63,0.00,,,0.00,TxWx,2013-11-14 12:46:00,
2013-11-14 07:47:00,71.7,58.0,30.21,ESE,114,19.2,24.8,63,0.00,,,0.00,TxWx,2013-11-14 12:47:00,
2013-11-14 07:48:00,71.5,57.0,30.21,East,91,19.2,19.2,62,0.00,,,0.00,TxWx,2013-11-14 12:48:00,
2013-11-14 07:51:00,72.1,59.0,30.21,East,91,14.9,14.9,64,0.00,,,0.00,TxWx,2013-11-14 12:51:00,
2013-11-14 07:52:00,71.6,59.0,30.21,ESE,114,19.8,21.0,63,0.00,,,0.00,TxWx,2013-11-14 12:52:00,
2013-11-14 07:54:00,72.0,59.0,30.21,East,91,14.9,17.9,64,0.00,,,0.00,TxWx,2013-11-14 12:54:00,
2013-11-14 07:56:00,72.2,59.0,30.21,East,91,21.0,21.0,64,0.00,,,0.00,TxWx,2013-11-14 12:56:00,
2013-11-14 07:57:00,71.8,58.0,30.21,East,91,24.8,24.8,62,0.00,,,0.00,TxWx,2013-11-14 12:57:00,
2013-11-14 07:58:00,71.6,58.0,30.22,East,91,21.7,23.5,62,0.00,,,0.00,TxWx,2013-11-14 12:58:00,
2013-11-14 08:00:00,71.9,58.0,30.22,East,91,21.7,21.7,62,0.00,,,0.00,TxWx,2013-11-14 13:00:00,
2013-11-14 08:01:00,71.9,58.0,30.22,ENE,69,21.0,21.0,62,0.00,,,0.00,TxWx,2013-11-14 13:01:00,
2013-11-14 08:02:00,71.8,58.0,30.22,East,91,17.3,17.3,61,0.00,,,0.00,TxWx,2013-11-14 13:02:00,
2013-11-14 08:03:00,71.8,58.0,30.22,East,91,25.4,25.4,62,0.00,,,0.00,TxWx,2013-11-14 13:03:00,
2013-11-14 08:05:00,71.8,58.0,30.22,East,91,22.9,27.2,61,0.00,,,0.00,TxWx,2013-11-14 13:05:00,
2013-11-14 08:07:00,71.8,57.0,30.22,East,91,25.4,25.4,59,0.00,,,0.00,TxWx,2013-11-14 13:07:00,
2013-11-14 08:08:00,71.8,57.0,30.22,ESE,114,17.3,20.4,60,0.00,,,0.00,TxWx,2013-11-14 13:08:00,
2013-11-14 08:10:00,72.3,58.0,30.22,East,91,26.6,26.6,62,0.00,,,0.00,TxWx,2013-11-14 13:10:00,
2013-11-14 08:12:00,71.9,57.0,30.22,ENE,69,17.3,19.2,59,0.00,,,0.00,TxWx,2013-11-14 13:12:00,
2013-11-14 08:13:00,72.0,56.0,30.22,East,91,19.8,19.8,58,0.00,,,0.00,TxWx,2013-11-14 13:13:00,
2013-11-14 08:14:00,72.3,57.0,30.22,ESE,114,21.7,21.7,59,0.00,,,0.00,TxWx,2013-11-14 13:14:00,
2013-11-14 08:16:00,72.2,56.0,30.22,East,91,19.2,21.0,58,0.00,,,0.00,TxWx,2013-11-14 13:16:00,
2013-11-14 08:17:00,72.4,58.0,30.21,East,91,21.7,21.7,62,0.00,,,0.00,TxWx,2013-11-14 13:17:00,
2013-11-14 08:18:00,72.1,56.0,30.21,East,91,17.9,24.8,58,0.00,,,0.00,TxWx,2013-11-14 13:18:00,
2013-11-14 08:19:00,72.3,57.0,30.22,ESE,114,19.2,19.2,59,0.00,,,0.00,TxWx,2013-11-14 13:19:00,
2013-11-14 08:21:00,72.2,57.0,30.22,East,91,19.8,22.3,59,0.00,,,0.00,TxWx,2013-11-14 13:21:00,
2013-11-14 08:22:00,72.3,58.0,30.22,East,91,26.0,26.0,61,0.00,,,0.00,TxWx,2013-11-14 13:22:00,
2013-11-14 08:23:00,72.4,57.0,30.22,ENE,69,23.5,23.5,59,0.00,,,0.00,TxWx,2013-11-14 13:23:00,
2013-11-14 08:24:00,72.3,57.0,30.21,East,91,28.5,28.5,60,0.00,,,0.00,TxWx,2013-11-14 13:24:00,
2013-11-14 08:26:00,72.5,58.0,30.22,ESE,114,15.5,15.5,60,0.00,,,0.00,TxWx,2013-11-14 13:26:00,
2013-11-14 08:27:00,72.1,56.0,30.22,ENE,69,17.9,19.2,58,0.00,,,0.00,TxWx,2013-11-14 13:27:00,
2013-11-14 08:28:00,72.5,58.0,30.22,East,91,22.3,23.5,60,0.00,,,0.00,TxWx,2013-11-14 13:28:00,
2013-11-14 08:29:00,72.6,57.0,30.22,East,91,24.8,24.8,58,0.00,,,0.00,TxWx,2013-11-14 13:29:00,
2013-11-14 08:30:00,72.8,58.0,30.22,ESE,114,17.3,18.6,60,0.00,,,0.00,TxWx,2013-11-14 13:30:00,
2013-11-14 08:31:00,72.6,58.0,30.22,East,91,22.3,22.9,60,0.00,,,0.00,TxWx,2013-11-14 13:31:00,
2013-11-14 08:33:00,72.2,56.0,30.22,ENE,69,20.4,22.9,58,0.00,,,0.00,TxWx,2013-11-14 13:33:00,
2013-11-14 08:34:00,72.5,57.0,30.29,East,91,26.6,26.6,58,0.00,,,0.00,TxWx,2013-11-14 13:34:00,
2013-11-14 08:35:00,72.9,58.0,30.22,ENE,69,21.7,22.3,59,0.00,,,0.00,TxWx,2013-11-14 13:35:00,
2013-11-14 08:37:00,72.3,55.0,30.22,East,91,26.6,26.6,56,0.00,,,0.00,TxWx,2013-11-14 13:37:00,
2013-11-14 08:38:00,72.1,55.0,30.22,East,91,22.3,24.1,56,0.00,,,0.00,TxWx,2013-11-14 13:38:00,
2013-11-14 08:39:00,72.3,55.0,30.22,ESE,114,20.4,22.3,56,0.00,,,0.00,TxWx,2013-11-14 13:39:00,
2013-11-14 08:40:00,72.5,57.0,30.22,ESE,114,20.4,21.7,58,0.00,,,0.00,TxWx,2013-11-14 13:40:00,
2013-11-14 08:43:00,72.2,56.0,30.22,East,91,27.2,27.2,57,0.00,,,0.00,TxWx,2013-11-14 13:43:00,
2013-11-14 08:44:00,72.3,57.0,30.22,East,91,25.4,25.4,60,0.00,,,0.00,TxWx,2013-11-14 13:44:00,
2013-11-14 08:45:00,72.4,57.0,30.29,East,91,20.4,21.0,59,0.00,,,0.00,TxWx,2013-11-14 13:45:00,
2013-11-14 08:46:00,72.3,56.0,30.22,ESE,114,16.1,24.1,58,0.00,,,0.00,TxWx,2013-11-14 13:46:00,
2013-11-14 08:48:00,72.7,58.0,30.23,ESE,114,20.4,20.4,60,0.00,,,0.00,TxWx,2013-11-14 13:48:00,
2013-11-14 08:49:00,72.5,58.0,30.23,East,91,18.6,18.6,60,0.00,,,0.00,TxWx,2013-11-14 13:49:00,
2013-11-14 08:50:00,72.8,59.0,30.23,East,91,20.4,20.4,62,0.00,,,0.00,TxWx,2013-11-14 13:50:00,
2013-11-14 08:51:00,72.3,58.0,30.23,East,91,17.9,17.9,61,0.00,,,0.00,TxWx,2013-11-14 13:51:00,
2013-11-14 08:53:00,72.2,56.0,30.23,East,91,24.1,24.1,58,0.00,,,0.00,TxWx,2013-11-14 13:53:00,
2013-11-14 08:55:00,72.4,57.0,30.30,ESE,114,23.5,23.5,60,0.00,,,0.00,TxWx,2013-11-14 13:55:00,
2013-11-14 08:56:00,72.3,56.0,30.23,ESE,114,17.9,22.9,58,0.00,,,0.00,TxWx,2013-11-14 13:56:00,
2013-11-14 08:58:00,72.1,56.0,30.23,East,91,19.8,21.7,57,0.00,,,0.00,TxWx,2013-11-14 13:58:00,
2013-11-14 09:00:00,72.4,56.0,30.23,ENE,69,24.1,25.4,58,0.00,,,0.00,TxWx,2013-11-14 14:00:00,
2013-11-14 09:01:00,72.2,56.0,30.23,ESE,114,19.2,25.4,57,0.00,,,0.00,TxWx,2013-11-14 14:01:00,
2013-11-14 09:04:00,72.3,57.0,30.23,ENE,69,26.6,29.1,59,0.00,,,0.00,TxWx,2013-11-14 14:04:00,
2013-11-14 09:05:00,72.5,58.0,30.23,ESE,114,26.6,26.6,61,0.00,,,0.00,TxWx,2013-11-14 14:05:00,
2013-11-14 09:06:00,72.3,57.0,30.24,ENE,69,18.6,18.6,60,0.00,,,0.00,TxWx,2013-11-14 14:06:00,
2013-11-14 09:09:00,72.0,57.0,30.24,East,91,24.8,29.1,60,0.00,,,0.00,TxWx,2013-11-14 14:09:00,
2013-11-14 09:10:00,72.2,58.0,30.24,East,91,20.4,22.3,61,0.00,,,0.00,TxWx,2013-11-14 14:10:00,
2013-11-14 09:11:00,72.1,58.0,30.24,ENE,69,17.9,17.9,61,0.00,,,0.00,TxWx,2013-11-14 14:11:00,
2013-11-14 09:12:00,72.4,58.0,30.23,East,91,21.7,21.7,61,0.00,,,0.00,TxWx,2013-11-14 14:12:00,
2013-11-14 09:14:00,72.2,58.0,30.24,ESE,114,21.7,21.7,61,0.00,,,0.00,TxWx,2013-11-14 14:14:00,
2013-11-14 09:15:00,72.7,60.0,30.23,ENE,69,18.6,23.5,64,0.00,,,0.00,TxWx,2013-11-14 14:15:00,
2013-11-14 09:16:00,72.5,60.0,30.23,NNE,24,23.5,24.1,64,0.00,,,0.00,TxWx,2013-11-14 14:16:00,
2013-11-14 09:17:00,72.4,58.0,30.23,East,91,22.3,24.8,63,0.00,,,0.00,TxWx,2013-11-14 14:17:00,
2013-11-14 09:18:00,72.2,58.0,30.23,East,91,24.1,28.5,63,0.00,,,0.00,TxWx,2013-11-14 14:18:00,
2013-11-14 09:19:00,72.2,58.0,30.29,East,91,29.1,31.6,62,0.00,,,0.00,TxWx,2013-11-14 14:19:00,
2013-11-14 09:20:00,72.3,58.0,30.23,East,91,22.3,22.3,61,0.00,,,0.00,TxWx,2013-11-14 14:20:00,
2013-11-14 09:21:00,72.6,60.0,30.23,East,91,21.7,21.7,63,0.00,,,0.00,TxWx,2013-11-14 14:21:00,
2013-11-14 09:22:00,72.3,58.0,30.23,East,91,20.4,20.4,61,0.00,,,0.00,TxWx,2013-11-14 14:22:00,
2013-11-14 09:23:00,72.7,59.0,30.23,East,91,23.5,23.5,62,0.00,,,0.00,TxWx,2013-11-14 14:23:00,
2013-11-14 09:24:00,72.5,59.0,30.24,ENE,69,17.9,19.2,63,0.00,,,0.00,TxWx,2013-11-14 14:24:00,
2013-11-14 09:25:00,72.8,59.0,30.23,East,91,22.9,23.5,62,0.00,,,0.00,TxWx,2013-11-14 14:25:00,
2013-11-14 09:27:00,72.8,58.0,30.24,NE,46,23.5,23.5,60,0.00,,,0.00,TxWx,2013-11-14 14:27:00,
2013-11-14 09:28:00,72.6,58.0,30.23,East,91,26.6,26.6,60,0.00,,,0.00,TxWx,2013-11-14 14:28:00,
2013-11-14 09:29:00,72.5,58.0,30.23,East,91,18.6,18.6,60,0.00,,,0.00,TxWx,2013-11-14 14:29:00,
2013-11-14 09:31:00,72.9,59.0,30.23,East,91,20.4,20.4,62,0.00,,,0.00,TxWx,2013-11-14 14:31:00,
2013-11-14 09:32:00,72.3,57.0,30.23,East,91,19.2,20.4,60,0.00,,,0.00,TxWx,2013-11-14 14:32:00,
2013-11-14 09:33:00,72.8,59.0,30.23,East,91,20.4,20.4,62,0.00,,,0.00,TxWx,2013-11-14 14:33:00,
2013-11-14 09:35:00,72.8,59.0,30.23,ENE,69,16.1,21.0,61,0.00,,,0.00,TxWx,2013-11-14 14:35:00,
2013-11-14 09:37:00,73.1,59.0,30.23,ENE,69,18.6,18.6,63,0.00,,,0.00,TxWx,2013-11-14 14:37:00,
2013-11-14 09:38:00,72.7,60.0,30.23,East,91,19.2,23.5,63,0.00,,,0.00,TxWx,2013-11-14 14:38:00,
2013-11-14 09:39:00,72.4,58.0,30.23,ESE,114,23.5,24.1,61,0.00,,,0.00,TxWx,2013-11-14 14:39:00,
2013-11-14 09:40:00,72.6,59.0,30.23,East,91,22.9,22.9,62,0.00,,,0.00,TxWx,2013-11-14 14:40:00,
2013-11-14 09:42:00,72.6,58.0,30.23,NNE,24,16.1,18.6,61,0.00,,,0.00,TxWx,2013-11-14 14:42:00,
2013-11-14 09:43:00,72.6,58.0,30.24,ENE,69,21.0,21.0,60,0.00,,,0.00,TxWx,2013-11-14 14:43:00,
2013-11-14 09:44:00,72.6,58.0,30.23,NE,46,14.2,17.3,60,0.00,,,0.00,TxWx,2013-11-14 14:44:00,
2013-11-14 09:45:00,72.9,59.0,30.23,East,91,17.3,17.3,62,0.00,,,0.00,TxWx,2013-11-14 14:45:00,
2013-11-14 09:47:00,72.7,58.0,30.23,East,91,13.6,16.7,61,0.00,,,0.00,TxWx,2013-11-14 14:47:00,
2013-11-14 09:49:00,72.5,59.0,30.24,East,91,24.1,24.1,62,0.00,,,0.00,TxWx,2013-11-14 14:49:00,
2013-11-14 09:50:00,72.3,57.0,30.24,East,91,22.9,22.9,60,0.00,,,0.00,TxWx,2013-11-14 14:50:00,
2013-11-14 09:52:00,72.5,59.0,30.24,East,91,24.8,24.8,61,0.00,,,0.00,TxWx,2013-11-14 14:52:00,
2013-11-14 09:53:00,72.4,58.0,30.24,ENE,69,20.4,24.1,61,0.00,,,0.00,TxWx,2013-11-14 14:53:00,
2013-11-14 09:54:00,72.4,57.0,30.30,East,91,18.6,19.2,60,0.00,,,0.00,TxWx,2013-11-14 14:54:00,
2013-11-14 09:55:00,72.5,58.0,30.24,ENE,69,21.0,21.0,60,0.00,,,0.00,TxWx,2013-11-14 14:55:00,
2013-11-14 09:57:00,72.8,58.0,30.30,East,91,23.5,23.5,61,0.00,,,0.00,TxWx,2013-11-14 14:57:00,
2013-11-14 09:58:00,72.8,58.0,30.24,East,91,14.9,16.1,61,0.00,,,0.00,TxWx,2013-11-14 14:58:00,
2013-11-14 09:59:00,72.9,58.0,30.24,East,91,16.1,16.7,60,0.00,,,0.00,TxWx,2013-11-14 14:59:00,
2013-11-14 10:00:00,72.8,58.0,30.24,East,91,13.6,13.6,60,0.00,,,0.00,TxWx,2013-11-14 15:00:00,
2013-11-14 10:02:00,73.1,58.0,30.24,ENE,69,16.1,16.1,59,0.00,,,0.00,TxWx,2013-11-14 15:02:00,
2013-11-14 10:03:00,73.1,58.0,30.24,ENE,69,21.0,22.3,60,0.00,,,0.00,TxWx,2013-11-14 15:03:00,
2013-11-14 10:04:00,73.1,58.0,30.24,East,91,11.1,13.0,59,0.00,,,0.00,TxWx,2013-11-14 15:04:00,
2013-11-14 10:05:00,73.0,58.0,30.24,East,91,13.0,18.6,59,0.00,,,0.00,TxWx,2013-11-14 15:05:00,
2013-11-14 10:08:00,73.0,58.0,30.24,NE,46,14.9,14.9,60,0.00,,,0.00,TxWx,2013-11-14 15:08:00,
2013-11-14 10:09:00,73.2,58.0,30.24,ENE,69,22.9,22.9,60,0.00,,,0.00,TxWx,2013-11-14 15:09:00,
2013-11-14 10:10:00,73.4,58.0,30.24,East,91,14.2,16.1,59,0.00,,,0.00,TxWx,2013-11-14 15:10:00,
2013-11-14 10:11:00,73.2,58.0,30.24,NNE,24,14.2,14.2,60,0.00,,,0.00,TxWx,2013-11-14 15:11:00,
2013-11-14 10:13:00,73.0,57.0,30.24,ENE,69,16.1,16.1,58,0.00,,,0.00,TxWx,2013-11-14 15:13:00,
2013-11-14 10:14:00,73.2,57.0,30.24,East,91,21.0,21.0,58,0.00,,,0.00,TxWx,2013-11-14 15:14:00,
2013-11-14 10:15:00,73.0,57.0,30.24,East,91,13.6,13.6,58,0.00,,,0.00,TxWx,2013-11-14 15:15:00,
2013-11-14 10:16:00,73.2,58.0,30.24,NNE,24,13.0,13.0,59,0.00,,,0.00,TxWx,2013-11-14 15:16:00,
2013-11-14 10:18:00,73.0,58.0,30.24,ENE,69,21.0,21.0,59,0.00,,,0.00,TxWx,2013-11-14 15:18:00,
2013-11-14 10:19:00,72.8,57.0,30.25,East,91,14.2,14.2,58,0.00,,,0.00,TxWx,2013-11-14 15:19:00,
2013-11-14 10:20:00,73.0,58.0,30.24,East,91,10.5,16.1,60,0.00,,,0.00,TxWx,2013-11-14 15:20:00,
2013-11-14 10:21:00,72.8,57.0,30.24,East,91,14.2,17.3,58,0.00,,,0.00,TxWx,2013-11-14 15:21:00,
2013-11-14 10:23:00,73.6,60.0,30.24,ENE,69,12.4,15.5,62,0.00,,,0.00,TxWx,2013-11-14 15:23:00,
2013-11-14 10:24:00,73.0,57.0,30.24,East,91,19.2,19.2,58,0.00,,,0.00,TxWx,2013-11-14 15:24:00,
2013-11-14 10:25:00,73.0,57.0,30.24,NE,46,15.5,16.7,57,0.00,,,0.00,TxWx,2013-11-14 15:25:00,
2013-11-14 10:26:00,72.9,56.0,30.24,ENE,69,17.3,18.6,56,0.00,,,0.00,TxWx,2013-11-14 15:26:00,
2013-11-14 10:28:00,73.0,57.0,30.25,East,91,16.7,16.7,58,0.00,,,0.00,TxWx,2013-11-14 15:28:00,
2013-11-14 10:29:00,72.8,57.0,30.25,ENE,69,12.4,14.9,58,0.00,,,0.00,TxWx,2013-11-14 15:29:00,
2013-11-14 10:30:00,73.1,57.0,30.31,East,91,9.9,9.9,58,0.00,,,0.00,TxWx,2013-11-14 15:30:00,
2013-11-14 10:31:00,72.8,57.0,30.25,ENE,69,14.9,14.9,57,0.00,,,0.00,TxWx,2013-11-14 15:31:00,
2013-11-14 10:33:00,73.0,57.0,30.25,East,91,14.2,14.2,58,0.00,,,0.00,TxWx,2013-11-14 15:33:00,
2013-11-14 10:34:00,72.9,57.0,30.25,ENE,69,13.6,14.9,58,0.00,,,0.00,TxWx,2013-11-14 15:34:00,
2013-11-14 10:35:00,73.4,59.0,30.25,SE,136,13.6,13.6,62,0.00,,,0.00,TxWx,2013-11-14 15:35:00,
2013-11-14 10:36:00,73.1,58.0,30.25,East,91,16.1,19.2,61,0.00,,,0.00,TxWx,2013-11-14 15:36:00,
2013-11-14 10:37:00,73.3,58.0,30.25,East,91,18.6,18.6,61,0.00,,,0.00,TxWx,2013-11-14 15:37:00,
2013-11-14 10:38:00,72.6,57.0,30.24,East,91,22.9,22.9,57,0.00,,,0.00,TxWx,2013-11-14 15:38:00,
2013-11-14 10:39:00,72.8,57.0,30.24,East,91,20.4,20.4,57,0.00,,,0.00,TxWx,2013-11-14 15:39:00,
2013-11-14 10:41:00,72.6,57.0,30.24,East,91,17.9,17.9,58,0.00,,,0.00,TxWx,2013-11-14 15:41:00,
2013-11-14 10:43:00,72.6,57.0,30.24,East,91,14.9,17.3,57,0.00,,,0.00,TxWx,2013-11-14 15:43:00,
2013-11-14 10:44:00,72.6,57.0,30.24,East,91,14.9,15.5,57,0.00,,,0.00,TxWx,2013-11-14 15:44:00,
2013-11-14 10:45:00,72.8,58.0,30.24,ESE,114,19.8,19.8,59,0.00,,,0.00,TxWx,2013-11-14 15:45:00,
2013-11-14 10:46:00,73.0,58.0,30.24,NE,46,12.4,14.9,59,0.00,,,0.00,TxWx,2013-11-14 15:46:00,
2013-11-14 10:48:00,73.2,58.0,30.24,NNE,24,9.9,11.8,61,0.00,,,0.00,TxWx,2013-11-14 15:48:00,
2013-11-14 10:49:00,72.6,58.0,30.24,East,91,19.2,21.0,59,0.00,,,0.00,TxWx,2013-11-14 15:49:00,
2013-11-14 10:50:00,72.5,57.0,30.24,ENE,69,16.7,17.9,58,0.00,,,0.00,TxWx,2013-11-14 15:50:00,
2013-11-14 10:51:00,72.7,57.0,30.24,East,91,16.1,16.1,58,0.00,,,0.00,TxWx,2013-11-14 15:51:00,
2013-11-14 10:52:00,72.9,58.0,30.24,East,91,11.1,15.5,60,0.00,,,0.00,TxWx,2013-11-14 15:52:00,
2013-11-14 10:53:00,73.0,58.0,30.24,ENE,69,14.2,14.2,60,0.00,,,0.00,TxWx,2013-11-14 15:53:00,
2013-11-14 10:54:00,72.8,58.0,30.24,East,91,9.9,12.4,60,0.00,,,0.00,TxWx,2013-11-14 15:54:00,
2013-11-14 10:55:00,72.8,58.0,30.24,East,91,19.8,19.8,60,0.00,,,0.00,TxWx,2013-11-14 15:55:00,
2013-11-14 10:56:00,72.8,58.0,30.24,ESE,114,19.8,21.7,59,0.00,,,0.00,TxWx,2013-11-14 15:56:00,
2013-11-14 10:57:00,72.8,57.0,30.24,East,91,14.9,15.5,58,0.00,,,0.00,TxWx,2013-11-14 15:57:00,
2013-11-14 10:59:00,72.8,57.0,30.24,East,91,9.3,9.3,58,0.00,,,0.00,TxWx,2013-11-14 15:59:00,
2013-11-14 11:00:00,73.0,57.0,30.24,ENE,69,16.1,16.7,57,0.00,,,0.00,TxWx,2013-11-14 16:00:00,
2013-11-14 11:01:00,73.0,57.0,30.24,East,91,14.2,16.1,58,0.00,,,0.00,TxWx,2013-11-14 16:01:00,
2013-11-14 11:02:00,72.7,57.0,30.24,ESE,114,19.8,19.8,57,0.00,,,0.00,TxWx,2013-11-14 16:02:00,
2013-11-14 11:04:00,73.5,58.0,30.24,ESE,114,12.4,13.0,60,0.00,,,0.00,TxWx,2013-11-14 16:04:00,
2013-11-14 11:05:00,73.3,59.0,30.24,East,91,16.1,19.2,61,0.00,,,0.00,TxWx,2013-11-14 16:05:00,
2013-11-14 11:07:00,72.7,56.0,30.23,NE,46,12.4,14.2,56,0.00,,,0.00,TxWx,2013-11-14 16:07:00,
2013-11-14 11:09:00,72.8,57.0,30.23,East,91,14.2,14.2,57,0.00,,,0.00,TxWx,2013-11-14 16:09:00,
2013-11-14 11:10:00,72.8,57.0,30.24,East,91,12.4,13.6,58,0.00,,,0.00,TxWx,2013-11-14 16:10:00,
2013-11-14 11:11:00,72.7,57.0,30.23,ENE,69,14.2,16.1,57,0.00,,,0.00,TxWx,2013-11-14 16:11:00,
2013-11-14 11:12:00,72.8,57.0,30.23,East,91,16.7,16.7,57,0.00,,,0.00,TxWx,2013-11-14 16:12:00,
2013-11-14 11:13:00,72.9,57.0,30.23,East,91,17.9,18.6,57,0.00,,,0.00,TxWx,2013-11-14 16:13:00,
2013-11-14 11:14:00,73.2,58.0,30.23,ENE,69,16.7,16.7,61,0.00,,,0.00,TxWx,2013-11-14 16:14:00,
2013-11-14 11:15:00,72.9,57.0,30.23,East,91,19.8,24.1,58,0.00,,,0.00,TxWx,2013-11-14 16:15:00,
2013-11-14 11:17:00,73.0,58.0,30.23,East,91,17.9,19.8,59,0.00,,,0.00,TxWx,2013-11-14 16:17:00,
2013-11-14 11:18:00,73.1,58.0,30.23,ENE,69,18.6,20.4,59,0.00,,,0.00,TxWx,2013-11-14 16:18:00,
2013-11-14 11:19:00,73.1,58.0,30.23,ENE,69,16.7,16.7,60,0.00,,,0.00,TxWx,2013-11-14 16:19:00,
2013-11-14 11:20:00,73.2,58.0,30.22,East,91,18.6,18.6,61,0.00,,,0.00,TxWx,2013-11-14 16:20:00,
2013-11-14 11:23:00,72.9,58.0,30.22,East,91,14.9,15.5,60,0.00,,,0.00,TxWx,2013-11-14 16:23:00,
2013-11-14 11:24:00,72.9,58.0,30.22,East,91,16.1,17.9,60,0.00,,,0.00,TxWx,2013-11-14 16:24:00,
2013-11-14 11:25:00,73.0,58.0,30.22,East,91,14.9,16.7,60,0.00,,,0.00,TxWx,2013-11-14 16:25:00,
2013-11-14 11:28:00,73.3,59.0,30.22,East,91,14.9,15.5,62,0.00,,,0.00,TxWx,2013-11-14 16:28:00,
2013-11-14 11:29:00,73.2,58.0,30.22,East,91,17.3,18.6,61,0.00,,,0.00,TxWx,2013-11-14 16:29:00,
2013-11-14 11:30:00,73.0,58.0,30.22,East,91,17.9,17.9,61,0.00,,,0.00,TxWx,2013-11-14 16:30:00,
2013-11-14 11:31:00,73.2,58.0,30.22,East,91,11.1,15.5,60,0.00,,,0.00,TxWx,2013-11-14 16:31:00,
2013-11-14 11:33:00,72.8,58.0,30.22,East,91,19.8,19.8,60,0.00,,,0.00,TxWx,2013-11-14 16:33:00,
2013-11-14 11:35:00,72.9,58.0,30.22,ENE,69,13.0,17.9,61,0.00,,,0.00,TxWx,2013-11-14 16:35:00,
2013-11-14 11:36:00,72.5,57.0,30.22,East,91,14.2,16.7,58,0.00,,,0.00,TxWx,2013-11-14 16:36:00,
2013-11-14 11:39:00,72.9,57.0,30.22,ENE,69,16.1,16.1,58,0.00,,,0.00,TxWx,2013-11-14 16:39:00,
2013-11-14 11:40:00,73.2,58.0,30.22,ESE,114,14.2,14.9,59,0.00,,,0.00,TxWx,2013-11-14 16:40:00,
2013-11-14 11:41:00,73.3,59.0,30.22,East,91,16.1,16.1,62,0.00,,,0.00,TxWx,2013-11-14 16:41:00,
2013-11-14 11:44:00,72.6,58.0,30.22,ESE,114,17.3,17.3,59,0.00,,,0.00,TxWx,2013-11-14 16:44:00,
2013-11-14 11:45:00,72.8,58.0,30.22,East,91,18.6,20.4,59,0.00,,,0.00,TxWx,2013-11-14 16:45:00,
2013-11-14 11:46:00,72.8,57.0,30.22,East,91,14.2,16.1,57,0.00,,,0.00,TxWx,2013-11-14 16:46:00,
2013-11-14 11:49:00,73.1,58.0,30.22,East,91,20.4,22.3,59,0.00,,,0.00,TxWx,2013-11-14 16:49:00,
2013-11-14 11:50:00,73.1,58.0,30.22,East,91,15.5,15.5,59,0.00,,,0.00,TxWx,2013-11-14 16:50:00,
2013-11-14 11:51:00,73.1,57.0,30.22,ESE,114,15.5,16.1,58,0.00,,,0.00,TxWx,2013-11-14 16:51:00,
2013-11-14 11:55:00,73.1,58.0,30.22,ESE,114,16.1,16.7,59,0.00,,,0.00,TxWx,2013-11-14 16:55:00,
2013-11-14 11:56:00,72.9,58.0,30.22,East,91,16.1,19.8,59,0.00,,,0.00,TxWx,2013-11-14 16:56:00,
2013-11-14 12:00:00,73.3,58.0,30.22,East,91,16.7,16.7,59,0.00,,,0.00,TxWx,2013-11-14 17:00:00,
2013-11-14 12:01:00,73.9,60.0,30.22,ESE,114,17.3,17.3,62,0.00,,,0.00,TxWx,2013-11-14 17:01:00,
2013-11-14 12:02:00,73.3,58.0,30.22,East,91,21.7,21.7,59,0.00,,,0.00,TxWx,2013-11-14 17:02:00,
2013-11-14 12:05:00,73.7,59.0,30.22,East,91,17.3,17.3,59,0.00,,,0.00,TxWx,2013-11-14 17:05:00,
2013-11-14 12:06:00,73.4,58.0,30.22,ESE,114,11.8,13.0,59,0.00,,,0.00,TxWx,2013-11-14 17:06:00,
2013-11-14 12:07:00,73.4,57.0,30.22,ESE,114,15.5,16.1,58,0.00,,,0.00,TxWx,2013-11-14 17:07:00,
2013-11-14 12:10:00,73.8,59.0,30.21,ENE,69,13.0,16.7,60,0.00,,,0.00,TxWx,2013-11-14 17:10:00,
2013-11-14 12:11:00,73.7,59.0,30.22,NE,46,14.2,14.2,59,0.00,,,0.00,TxWx,2013-11-14 17:11:00,
2013-11-14 12:12:00,73.7,59.0,30.21,ENE,69,17.9,17.9,59,0.00,,,0.00,TxWx,2013-11-14 17:12:00,
2013-11-14 12:13:00,73.8,59.0,30.21,NNE,24,18.6,19.8,60,0.00,,,0.00,TxWx,2013-11-14 17:13:00,
2013-11-14 12:15:00,73.9,58.0,30.21,NE,46,18.6,18.6,59,0.00,,,0.00,TxWx,2013-11-14 17:15:00,
2013-11-14 12:16:00,74.0,58.0,30.21,ENE,69,11.1,11.8,58,0.00,,,0.00,TxWx,2013-11-14 17:16:00,
2013-11-14 12:17:00,73.8,58.0,30.21,East,91,17.9,19.8,59,0.00,,,0.00,TxWx,2013-11-14 17:17:00,
2013-11-14 12:18:00,74.4,59.0,30.20,ENE,69,15.5,17.9,60,0.00,,,0.00,TxWx,2013-11-14 17:18:00,
2013-11-14 12:19:00,74.0,59.0,30.20,East,91,16.1,19.8,61,0.00,,,0.00,TxWx,2013-11-14 17:19:00,
2013-11-14 12:20:00,73.5,59.0,30.21,ESE,114,13.0,13.6,60,0.00,,,0.00,TxWx,2013-11-14 17:20:00,
2013-11-14 12:21:00,73.4,58.0,30.20,East,91,13.0,14.2,60,0.00,,,0.00,TxWx,2013-11-14 17:21:00,
2013-11-14 12:22:00,73.5,58.0,30.20,ENE,69,18.6,18.6,60,0.00,,,0.00,TxWx,2013-11-14 17:22:00,
2013-11-14 12:23:00,73.6,58.0,30.20,East,91,16.1,16.1,59,0.00,,,0.00,TxWx,2013-11-14 17:23:00,
2013-11-14 12:24:00,73.8,59.0,30.20,ESE,114,12.4,12.4,60,0.00,,,0.00,TxWx,2013-11-14 17:24:00,
2013-11-14 12:25:00,73.7,58.0,30.21,East,91,16.1,16.1,59,0.00,,,0.00,TxWx,2013-11-14 17:25:00,
2013-11-14 12:26:00,73.3,57.0,30.20,ESE,114,13.0,13.6,57,0.00,,,0.00,TxWx,2013-11-14 17:26:00,
2013-11-14 12:27:00,73.8,58.0,30.21,ESE,114,14.9,14.9,58,0.00,,,0.00,TxWx,2013-11-14 17:27:00,
2013-11-14 12:28:00,74.2,59.0,30.20,East,91,11.8,11.8,60,0.00,,,0.00,TxWx,2013-11-14 17:28:00,
2013-11-14 12:29:00,73.4,58.0,30.20,NE,46,18.6,19.2,60,0.00,,,0.00,TxWx,2013-11-14 17:29:00,
2013-11-14 12:30:00,73.5,58.0,30.20,ENE,69,20.4,20.4,61,0.00,,,0.00,TxWx,2013-11-14 17:30:00,
2013-11-14 12:31:00,73.6,59.0,30.20,ENE,69,14.2,14.2,61,0.00,,,0.00,TxWx,2013-11-14 17:31:00,
2013-11-14 12:33:00,73.6,60.0,30.20,ENE,69,8.7,10.5,62,0.00,,,0.00,TxWx,2013-11-14 17:33:00,
2013-11-14 12:35:00,73.9,60.0,30.20,NE,46,9.3,13.0,63,0.00,,,0.00,TxWx,2013-11-14 17:35:00,
2013-11-14 12:36:00,73.7,60.0,30.20,ESE,114,14.9,14.9,63,0.00,,,0.00,TxWx,2013-11-14 17:36:00,
2013-11-14 12:38:00,73.4,59.0,30.20,ESE,114,13.6,15.5,61,0.00,,,0.00,TxWx,2013-11-14 17:38:00,
2013-11-14 12:39:00,73.5,59.0,30.20,ESE,114,11.8,11.8,61,0.00,,,0.00,TxWx,2013-11-14 17:39:00,
2013-11-14 12:40:00,73.5,60.0,30.25,East,91,22.9,22.9,63,0.00,,,0.00,TxWx,2013-11-14 17:40:00,
2013-11-14 12:41:00,73.4,59.0,30.19,East,91,22.3,22.3,62,0.00,,,0.00,TxWx,2013-11-14 17:41:00,
2013-11-14 12:43:00,73.6,60.0,30.19,East,91,16.7,17.3,62,0.00,,,0.00,TxWx,2013-11-14 17:43:00,
2013-11-14 12:44:00,73.8,60.0,30.19,East,91,13.6,14.9,63,0.00,,,0.00,TxWx,2013-11-14 17:44:00,
2013-11-14 12:45:00,73.5,59.0,30.19,ENE,69,14.2,14.2,62,0.00,,,0.00,TxWx,2013-11-14 17:45:00,
2013-11-14 12:46:00,73.2,58.0,30.19,East,91,14.9,17.9,61,0.00,,,0.00,TxWx,2013-11-14 17:46:00,
2013-11-14 12:47:00,73.6,59.0,30.19,ENE,69,13.6,16.1,61,0.00,,,0.00,TxWx,2013-11-14 17:47:00,
2013-11-14 12:49:00,73.6,60.0,30.19,ENE,69,14.2,16.1,61,0.00,,,0.00,TxWx,2013-11-14 17:49:00,
2013-11-14 12:51:00,73.4,58.0,30.18,East,91,16.7,17.3,61,0.00,,,0.00,TxWx,2013-11-14 17:51:00,
2013-11-14 12:52:00,73.4,58.0,30.19,East,91,17.9,17.9,60,0.00,,,0.00,TxWx,2013-11-14 17:52:00,
2013-11-14 12:54:00,73.2,58.0,30.18,East,91,16.1,17.3,60,0.00,,,0.00,TxWx,2013-11-14 17:54:00,
2013-11-14 12:56:00,73.9,60.0,30.18,ENE,69,13.6,13.6,62,0.00,,,0.00,TxWx,2013-11-14 17:56:00,
2013-11-14 12:58:00,73.3,58.0,30.19,East,91,13.6,18.6,61,0.00,,,0.00,TxWx,2013-11-14 17:58:00,
2013-11-14 12:59:00,73.2,58.0,30.18,East,91,13.6,13.6,60,0.00,,,0.00,TxWx,2013-11-14 17:59:00,
2013-11-14 13:01:00,73.3,58.0,30.18,ENE,69,15.5,17.3,60,0.00,,,0.00,TxWx,2013-11-14 18:01:00,
2013-11-14 13:03:00,73.2,59.0,30.18,East,91,21.7,22.3,61,0.00,,,0.00,TxWx,2013-11-14 18:03:00,
2013-11-14 13:04:00,73.2,59.0,30.18,ESE,114,19.8,21.7,62,0.00,,,0.00,TxWx,2013-11-14 18:04:00,
2013-11-14 13:05:00,73.3,59.0,30.18,East,91,19.8,19.8,61,0.00,,,0.00,TxWx,2013-11-14 18:05:00,
2013-11-14 13:06:00,73.5,60.0,30.18,ESE,114,17.9,17.9,62,0.00,,,0.00,TxWx,2013-11-14 18:06:00,
2013-11-14 13:09:00,73.0,59.0,30.18,ESE,114,9.9,11.8,62,0.00,,,0.00,TxWx,2013-11-14 18:09:00,
2013-11-14 13:10:00,73.1,59.0,30.18,East,91,11.8,11.8,61,0.00,,,0.00,TxWx,2013-11-14 18:10:00,
2013-11-14 13:11:00,73.3,58.0,30.18,East,91,16.7,16.7,61,0.00,,,0.00,TxWx,2013-11-14 18:11:00,
2013-11-14 13:12:00,73.3,58.0,30.18,ENE,69,13.0,13.0,61,0.00,,,0.00,TxWx,2013-11-14 18:12:00,
2013-11-14 13:14:00,73.7,60.0,30.18,ENE,69,17.9,17.9,62,0.00,,,0.00,TxWx,2013-11-14 18:14:00,
2013-11-14 13:15:00,73.6,61.0,30.18,ENE,69,12.4,16.1,63,0.00,,,0.00,TxWx,2013-11-14 18:15:00,
2013-11-14 13:16:00,72.9,58.0,30.18,East,91,18.6,18.6,60,0.00,,,0.00,TxWx,2013-11-14 18:16:00,
2013-11-14 13:17:00,73.0,58.0,30.18,East,91,16.1,16.1,60,0.00,,,0.00,TxWx,2013-11-14 18:17:00,
2013-11-14 13:20:00,73.2,59.0,30.18,ENE,69,14.9,16.7,62,0.00,,,0.00,TxWx,2013-11-14 18:20:00,
2013-11-14 13:21:00,73.4,58.0,30.18,East,91,13.6,14.9,61,0.00,,,0.00,TxWx,2013-11-14 18:21:00,
2013-11-14 13:22:00,73.6,59.0,30.17,East,91,15.5,16.7,59,0.00,,,0.00,TxWx,2013-11-14 18:22:00,
2013-11-14 13:25:00,73.3,57.0,30.18,ENE,69,12.4,12.4,58,0.00,,,0.00,TxWx,2013-11-14 18:25:00,
2013-11-14 13:26:00,73.5,58.0,30.17,ESE,114,12.4,14.9,59,0.00,,,0.00,TxWx,2013-11-14 18:26:00,
2013-11-14 13:28:00,73.6,59.0,30.17,East,91,14.2,14.2,59,0.00,,,0.00,TxWx,2013-11-14 18:28:00,
2013-11-14 13:30:00,73.4,58.0,30.17,ENE,69,14.9,15.5,59,0.00,,,0.00,TxWx,2013-11-14 18:30:00,
2013-11-14 13:31:00,73.3,58.0,30.17,ESE,114,14.2,14.9,59,0.00,,,0.00,TxWx,2013-11-14 18:31:00,
2013-11-14 13:33:00,73.2,58.0,30.17,East,91,14.9,14.9,59,0.00,,,0.00,TxWx,2013-11-14 18:33:00,
2013-11-14 13:35:00,73.1,57.0,30.17,NE,46,14.2,19.2,57,0.00,,,0.00,TxWx,2013-11-14 18:35:00,
2013-11-14 13:36:00,73.4,57.0,30.17,East,91,16.7,21.7,58,0.00,,,0.00,TxWx,2013-11-14 18:36:00,
2013-11-14 13:37:00,73.5,59.0,30.17,East,91,18.6,18.6,59,0.00,,,0.00,TxWx,2013-11-14 18:37:00,
2013-11-14 13:38:00,73.3,58.0,30.17,East,91,15.5,17.9,59,0.00,,,0.00,TxWx,2013-11-14 18:38:00,
2013-11-14 13:41:00,73.2,57.0,30.17,East,91,15.5,18.6,58,0.00,,,0.00,TxWx,2013-11-14 18:41:00,
2013-11-14 13:42:00,73.6,59.0,30.17,East,91,15.5,19.2,59,0.00,,,0.00,TxWx,2013-11-14 18:42:00,
2013-11-14 13:43:00,73.3,58.0,30.17,East,91,18.6,22.9,59,0.00,,,0.00,TxWx,2013-11-14 18:43:00,
2013-11-14 13:46:00,73.6,58.0,30.17,ENE,69,17.9,17.9,59,0.00,,,0.00,TxWx,2013-11-14 18:46:00,
2013-11-14 13:47:00,73.6,59.0,30.17,East,91,14.9,17.9,60,0.00,,,0.00,TxWx,2013-11-14 18:47:00,
2013-11-14 13:49:00,73.2,57.0,30.17,East,91,19.2,19.8,58,0.00,,,0.00,TxWx,2013-11-14 18:49:00,
2013-11-14 13:51:00,73.5,57.0,30.17,East,91,19.2,19.2,58,0.00,,,0.00,TxWx,2013-11-14 18:51:00,
2013-11-14 13:52:00,73.4,58.0,30.17,East,91,19.8,21.0,59,0.00,,,0.00,TxWx,2013-11-14 18:52:00,
2013-11-14 13:53:00,73.3,57.0,30.17,East,91,16.1,20.4,57,0.00,,,0.00,TxWx,2013-11-14 18:53:00,
2013-11-14 13:54:00,73.7,58.0,30.17,ENE,69,13.0,13.0,58,0.00,,,0.00,TxWx,2013-11-14 18:54:00,
2013-11-14 13:56:00,73.5,58.0,30.16,ESE,114,12.4,12.4,58,0.00,,,0.00,TxWx,2013-11-14 18:56:00,
2013-11-14 13:57:00,73.5,58.0,30.17,East,91,13.0,14.2,59,0.00,,,0.00,TxWx,2013-11-14 18:57:00,
2013-11-14 13:58:00,73.5,57.0,30.17,ENE,69,14.2,16.7,58,0.00,,,0.00,TxWx,2013-11-14 18:58:00,
2013-11-14 13:59:00,73.6,58.0,30.16,ENE,69,12.4,13.6,59,0.00,,,0.00,TxWx,2013-11-14 18:59:00,
2013-11-14 14:02:00,73.4,57.0,30.16,ENE,69,21.0,21.0,58,0.00,,,0.00,TxWx,2013-11-14 19:02:00,
2013-11-14 14:03:00,73.8,58.0,30.16,ENE,69,16.7,16.7,59,0.00,,,0.00,TxWx,2013-11-14 19:03:00,
2013-11-14 14:04:00,73.4,57.0,30.16,East,91,22.9,26.0,58,0.00,,,0.00,TxWx,2013-11-14 19:04:00,
2013-11-14 14:07:00,73.8,58.0,30.16,ESE,114,14.2,14.2,57,0.00,,,0.00,TxWx,2013-11-14 19:07:00,
2013-11-14 14:09:00,73.5,58.0,30.16,ENE,69,17.9,17.9,58,0.00,,,0.00,TxWx,2013-11-14 19:09:00,
2013-11-14 14:10:00,73.6,58.0,30.16,ENE,69,20.4,20.4,58,0.00,,,0.00,TxWx,2013-11-14 19:10:00,
2013-11-14 14:12:00,73.8,59.0,30.16,East,91,17.3,17.3,60,0.00,,,0.00,TxWx,2013-11-14 19:12:00,
2013-11-14 14:13:00,73.5,59.0,30.16,East,91,21.0,21.0,59,0.00,,,0.00,TxWx,2013-11-14 19:13:00,
2013-11-14 14:14:00,73.4,58.0,30.16,ENE,69,19.2,19.8,59,0.00,,,0.00,TxWx,2013-11-14 19:14:00,
2013-11-14 14:15:00,73.2,57.0,30.16,ENE,69,11.1,11.8,57,0.00,,,0.00,TxWx,2013-11-14 19:15:00,
2013-11-14 14:17:00,73.5,57.0,30.16,East,91,19.8,20.4,58,0.00,,,0.00,TxWx,2013-11-14 19:17:00,
2013-11-14 14:18:00,73.3,57.0,30.16,ESE,114,16.7,19.8,57,0.00,,,0.00,TxWx,2013-11-14 19:18:00,
2013-11-14 14:20:00,73.4,57.0,30.16,East,91,18.6,18.6,57,0.00,,,0.00,TxWx,2013-11-14 19:20:00,
2013-11-14 14:23:00,73.5,58.0,30.16,SSE,159,8.7,10.5,59,0.00,,,0.00,TxWx,2013-11-14 19:23:00,
2013-11-14 14:25:00,73.2,57.0,30.16,East,91,15.5,15.5,57,0.00,,,0.00,TxWx,2013-11-14 19:25:00,
2013-11-14 14:26:00,73.6,58.0,30.22,ENE,69,13.0,14.2,59,0.00,,,0.00,TxWx,2013-11-14 19:26:00,
2013-11-14 14:28:00,73.4,57.0,30.16,East,91,17.9,17.9,57,0.00,,,0.00,TxWx,2013-11-14 19:28:00,
2013-11-14 14:30:00,73.7,59.0,30.16,East,91,17.9,18.6,59,0.00,,,0.00,TxWx,2013-11-14 19:30:00,
2013-11-14 14:32:00,73.8,59.0,30.16,East,91,15.5,19.8,60,0.00,,,0.00,TxWx,2013-11-14 19:32:00,
2013-11-14 14:33:00,73.4,58.0,30.16,East,91,16.1,17.3,59,0.00,,,0.00,TxWx,2013-11-14 19:33:00,
2013-11-14 14:34:00,73.3,57.0,30.16,East,91,16.1,16.1,57,0.00,,,0.00,TxWx,2013-11-14 19:34:00,
2013-11-14 14:35:00,73.3,57.0,30.16,East,91,17.3,17.9,57,0.00,,,0.00,TxWx,2013-11-14 19:35:00,
2013-11-14 14:37:00,73.5,58.0,30.16,ENE,69,16.7,18.6,59,0.00,,,0.00,TxWx,2013-11-14 19:37:00,
2013-11-14 14:38:00,73.2,57.0,30.16,East,91,16.7,16.7,58,0.00,,,0.00,TxWx,2013-11-14 19:38:00,
2013-11-14 14:39:00,73.3,57.0,30.15,ENE,69,19.2,21.7,58,0.00,,,0.00,TxWx,2013-11-14 19:39:00,
2013-11-14 14:40:00,73.8,60.0,30.16,East,91,14.9,16.7,61,0.00,,,0.00,TxWx,2013-11-14 19:40:00,
2013-11-14 14:41:00,73.6,60.0,30.16,East,91,17.3,17.3,61,0.00,,,0.00,TxWx,2013-11-14 19:41:00,
2013-11-14 14:42:00,73.3,57.0,30.16,East,91,15.5,19.8,58,0.00,,,0.00,TxWx,2013-11-14 19:42:00,
2013-11-14 14:44:00,73.3,57.0,30.16,ENE,69,16.7,21.7,57,0.00,,,0.00,TxWx,2013-11-14 19:44:00,
2013-11-14 14:46:00,73.4,57.0,30.16,East,91,16.7,20.4,58,0.00,,,0.00,TxWx,2013-11-14 19:46:00,
2013-11-14 14:47:00,73.5,58.0,30.16,ENE,69,14.2,14.2,58,0.00,,,0.00,TxWx,2013-11-14 19:47:00,
2013-11-14 14:49:00,73.5,59.0,30.15,East,91,20.4,20.4,60,0.00,,,0.00,TxWx,2013-11-14 19:49:00,
2013-11-14 14:50:00,73.6,59.0,30.16,East,91,16.7,17.9,60,0.00,,,0.00,TxWx,2013-11-14 19:50:00,
2013-11-14 14:51:00,73.7,59.0,30.15,ENE,69,17.9,20.4,61,0.00,,,0.00,TxWx,2013-11-14 19:51:00,
2013-11-14 14:52:00,73.5,59.0,30.15,East,91,14.9,15.5,59,0.00,,,0.00,TxWx,2013-11-14 19:52:00,
2013-11-14 14:54:00,73.6,60.0,30.15,East,91,15.5,17.3,62,0.00,,,0.00,TxWx,2013-11-14 19:54:00,
2013-11-14 14:55:00,73.5,59.0,30.15,East,91,16.1,16.7,60,0.00,,,0.00,TxWx,2013-11-14 19:55:00,
2013-11-14 14:57:00,73.3,58.0,30.15,East,91,18.6,19.2,60,0.00,,,0.00,TxWx,2013-11-14 19:57:00,
2013-11-14 14:58:00,73.4,58.0,30.15,East,91,19.2,19.2,60,0.00,,,0.00,TxWx,2013-11-14 19:58:00,
2013-11-14 14:59:00,73.7,60.0,30.15,ESE,114,21.7,21.7,61,0.00,,,0.00,TxWx,2013-11-14 19:59:00,
2013-11-14 15:00:00,73.4,58.0,30.15,East,91,18.6,22.9,61,0.00,,,0.00,TxWx,2013-11-14 20:00:00,
2013-11-14 15:01:00,73.3,59.0,30.15,East,91,20.4,20.4,61,0.00,,,0.00,TxWx,2013-11-14 20:01:00,
2013-11-14 15:02:00,73.3,58.0,30.15,ESE,114,19.8,21.0,60,0.00,,,0.00,TxWx,2013-11-14 20:02:00,
2013-11-14 15:03:00,73.7,59.0,30.16,East,91,21.0,21.0,60,0.00,,,0.00,TxWx,2013-11-14 20:03:00,
2013-11-14 15:05:00,73.3,58.0,30.16,East,91,19.8,19.8,59,0.00,,,0.00,TxWx,2013-11-14 20:05:00,
2013-11-14 15:06:00,73.5,59.0,30.16,East,91,15.5,16.1,59,0.00,,,0.00,TxWx,2013-11-14 20:06:00,
2013-11-14 15:07:00,73.6,59.0,30.16,ENE,69,13.0,14.2,60,0.00,,,0.00,TxWx,2013-11-14 20:07:00,
2013-11-14 15:08:00,73.4,58.0,30.16,East,91,14.9,18.6,59,0.00,,,0.00,TxWx,2013-11-14 20:08:00,
2013-11-14 15:10:00,74.0,59.0,30.16,East,91,16.7,16.7,60,0.00,,,0.00,TxWx,2013-11-14 20:10:00,
2013-11-14 15:11:00,73.4,57.0,30.16,ENE,69,20.4,21.0,58,0.00,,,0.00,TxWx,2013-11-14 20:11:00,
2013-11-14 15:12:00,73.4,57.0,30.16,ESE,114,18.6,20.4,58,0.00,,,0.00,TxWx,2013-11-14 20:12:00,
2013-11-14 15:13:00,73.5,58.0,30.16,East,91,17.3,20.4,59,0.00,,,0.00,TxWx,2013-11-14 20:13:00,
2013-11-14 15:16:00,73.5,59.0,30.16,East,91,16.1,16.1,61,0.00,,,0.00,TxWx,2013-11-14 20:16:00,
2013-11-14 15:18:00,73.7,60.0,30.16,East,91,14.9,14.9,62,0.00,,,0.00,TxWx,2013-11-14 20:18:00,
2013-11-14 15:19:00,73.7,59.0,30.16,East,91,15.5,15.5,61,0.00,,,0.00,TxWx,2013-11-14 20:19:00,
2013-11-14 15:21:00,73.4,57.0,30.16,East,91,11.8,14.2,58,0.00,,,0.00,TxWx,2013-11-14 20:21:00,
2013-11-14 15:22:00,73.5,58.0,30.16,East,91,20.4,20.4,60,0.00,,,0.00,TxWx,2013-11-14 20:22:00,
2013-11-14 15:23:00,73.3,57.0,30.16,East,91,17.3,17.9,58,0.00,,,0.00,TxWx,2013-11-14 20:23:00,
2013-11-14 15:24:00,73.3,58.0,30.16,East,91,14.2,14.2,59,0.00,,,0.00,TxWx,2013-11-14 20:24:00,
2013-11-14 15:26:00,73.4,57.0,30.16,ENE,69,14.9,14.9,58,0.00,,,0.00,TxWx,2013-11-14 20:26:00,
2013-11-14 15:27:00,73.5,58.0,30.16,East,91,15.5,17.3,59,0.00,,,0.00,TxWx,2013-11-14 20:27:00,
2013-11-14 15:28:00,73.2,58.0,30.16,East,91,21.0,21.0,59,0.00,,,0.00,TxWx,2013-11-14 20:28:00,
2013-11-14 15:29:00,73.3,57.0,30.16,ESE,114,16.1,17.3,58,0.00,,,0.00,TxWx,2013-11-14 20:29:00,
2013-11-14 15:30:00,73.4,58.0,30.16,East,91,16.7,17.9,59,0.00,,,0.00,TxWx,2013-11-14 20:30:00,
2013-11-14 15:31:00,73.4,58.0,30.16,ENE,69,15.5,17.9,59,0.00,,,0.00,TxWx,2013-11-14 20:31:00,
2013-11-14 15:32:00,73.7,60.0,30.17,East,91,13.0,13.0,62,0.00,,,0.00,TxWx,2013-11-14 20:32:00,
2013-11-14 15:33:00,73.6,60.0,30.17,ESE,114,19.8,19.8,62,0.00,,,0.00,TxWx,2013-11-14 20:33:00,
2013-11-14 15:35:00,73.5,59.0,30.16,NNE,24,11.1,17.3,60,0.00,,,0.00,TxWx,2013-11-14 20:35:00,
2013-11-14 15:36:00,73.4,57.0,30.16,East,91,18.6,18.6,58,0.00,,,0.00,TxWx,2013-11-14 20:36:00,
2013-11-14 15:37:00,73.3,58.0,30.16,East,91,13.6,13.6,59,0.00,,,0.00,TxWx,2013-11-14 20:37:00,
2013-11-14 15:38:00,73.5,58.0,30.16,ENE,69,14.2,14.2,59,0.00,,,0.00,TxWx,2013-11-14 20:38:00,
2013-11-14 15:40:00,73.5,59.0,30.16,ENE,69,12.4,14.9,61,0.00,,,0.00,TxWx,2013-11-14 20:40:00,
2013-11-14 15:41:00,73.4,57.0,30.16,East,91,14.2,14.2,57,0.00,,,0.00,TxWx,2013-11-14 20:41:00,
2013-11-14 15:42:00,73.6,58.0,30.16,NE,46,8.7,9.3,58,0.00,,,0.00,TxWx,2013-11-14 20:42:00,
2013-11-14 15:43:00,73.9,59.0,30.15,ENE,69,13.6,15.5,60,0.00,,,0.00,TxWx,2013-11-14 20:43:00,
2013-11-14 15:44:00,73.7,59.0,30.16,NE,46,17.9,17.9,60,0.00,,,0.00,TxWx,2013-11-14 20:44:00,
2013-11-14 15:45:00,73.3,57.0,30.16,East,91,13.0,15.5,58,0.00,,,0.00,TxWx,2013-11-14 20:45:00,
2013-11-14 15:46:00,73.6,58.0,30.16,NE,46,9.3,10.5,57,0.00,,,0.00,TxWx,2013-11-14 20:46:00,
2013-11-14 15:47:00,73.6,58.0,30.16,East,91,11.8,11.8,58,0.00,,,0.00,TxWx,2013-11-14 20:47:00,
2013-11-14 15:48:00,73.8,59.0,30.16,East,91,16.7,16.7,60,0.00,,,0.00,TxWx,2013-11-14 20:48:00,
2013-11-14 15:50:00,73.5,59.0,30.16,East,91,14.2,14.9,59,0.00,,,0.00,TxWx,2013-11-14 20:50:00,
2013-11-14 15:51:00,73.7,58.0,30.16,ENE,69,13.6,19.2,59,0.00,,,0.00,TxWx,2013-11-14 20:51:00,
2013-11-14 15:52:00,73.8,59.0,30.16,ESE,114,13.0,14.2,60,0.00,,,0.00,TxWx,2013-11-14 20:52:00,
2013-11-14 15:53:00,73.8,59.0,30.16,East,91,16.1,16.1,60,0.00,,,0.00,TxWx,2013-11-14 20:53:00,
2013-11-14 15:55:00,73.5,56.0,30.16,East,91,16.7,16.7,56,0.00,,,0.00,TxWx,2013-11-14 20:55:00,
2013-11-14 15:56:00,73.5,56.0,30.16,East,91,13.0,13.0,56,0.00,,,0.00,TxWx,2013-11-14 20:56:00,
2013-11-14 15:57:00,73.5,57.0,30.16,East,91,11.1,11.1,55,0.00,,,0.00,TxWx,2013-11-14 20:57:00,
2013-11-14 15:59:00,73.4,57.0,30.16,East,91,15.5,17.3,58,0.00,,,0.00,TxWx,2013-11-14 20:59:00,
2013-11-14 16:01:00,73.6,59.0,30.16,SE,136,11.1,14.2,59,0.00,,,0.00,TxWx,2013-11-14 21:01:00,
2013-11-14 16:02:00,73.8,59.0,30.16,East,91,14.2,16.7,61,0.00,,,0.00,TxWx,2013-11-14 21:02:00,
2013-11-14 16:03:00,73.4,59.0,30.16,East,91,20.4,20.4,62,0.00,,,0.00,TxWx,2013-11-14 21:03:00,
2013-11-14 16:04:00,73.4,58.0,30.16,East,91,14.9,14.9,60,0.00,,,0.00,TxWx,2013-11-14 21:04:00,
2013-11-14 16:06:00,73.7,60.0,30.16,East,91,16.1,16.7,62,0.00,,,0.00,TxWx,2013-11-14 21:06:00,
2013-11-14 16:07:00,73.4,58.0,30.16,East,91,16.7,16.7,60,0.00,,,0.00,TxWx,2013-11-14 21:07:00,
2013-11-14 16:08:00,73.5,58.0,30.16,ENE,69,15.5,17.3,61,0.00,,,0.00,TxWx,2013-11-14 21:08:00,
2013-11-14 16:10:00,73.3,58.0,30.16,East,91,16.7,16.7,61,0.00,,,0.00,TxWx,2013-11-14 21:10:00,
2013-11-14 16:11:00,73.2,58.0,30.16,NE,46,18.6,18.6,61,0.00,,,0.00,TxWx,2013-11-14 21:11:00,
2013-11-14 16:12:00,73.4,58.0,30.16,ENE,69,11.8,11.8,61,0.00,,,0.00,TxWx,2013-11-14 21:12:00,
2013-11-14 16:13:00,73.2,59.0,30.16,ENE,69,14.2,16.7,61,0.00,,,0.00,TxWx,2013-11-14 21:13:00,
2013-11-14 16:14:00,73.5,59.0,30.16,East,91,21.7,21.7,61,0.00,,,0.00,TxWx,2013-11-14 21:14:00,
2013-11-14 16:15:00,73.7,60.0,30.16,NNE,24,14.9,14.9,62,0.00,,,0.00,TxWx,2013-11-14 21:15:00,
2013-11-14 16:17:00,73.5,59.0,30.16,NE,46,12.4,12.4,61,0.00,,,0.00,TxWx,2013-11-14 21:17:00,
2013-11-14 16:18:00,73.3,59.0,30.16,NE,46,15.5,15.5,61,0.00,,,0.00,TxWx,2013-11-14 21:18:00,
2013-11-14 16:19:00,73.6,60.0,30.16,East,91,17.3,18.6,62,0.00,,,0.00,TxWx,2013-11-14 21:19:00,
2013-11-14 16:20:00,73.2,58.0,30.16,East,91,20.4,20.4,59,0.00,,,0.00,TxWx,2013-11-14 21:20:00,
2013-11-14 16:23:00,73.4,58.0,30.16,East,91,13.0,15.5,60,0.00,,,0.00,TxWx,2013-11-14 21:23:00,
2013-11-14 16:24:00,73.2,58.0,30.16,East,91,14.9,14.9,61,0.00,,,0.00,TxWx,2013-11-14 21:24:00,
2013-11-14 16:25:00,73.6,60.0,30.16,ESE,114,14.2,16.7,61,0.00,,,0.00,TxWx,2013-11-14 21:25:00,
2013-11-14 16:28:00,73.3,58.0,30.16,NE,46,13.6,16.1,60,0.00,,,0.00,TxWx,2013-11-14 21:28:00,
2013-11-14 16:29:00,73.4,58.0,30.16,East,91,14.9,14.9,60,0.00,,,0.00,TxWx,2013-11-14 21:29:00,
2013-11-14 16:30:00,73.3,59.0,30.16,ENE,69,19.2,19.2,62,0.00,,,0.00,TxWx,2013-11-14 21:30:00,
2013-11-14 16:31:00,73.6,60.0,30.16,NE,46,14.9,14.9,62,0.00,,,0.00,TxWx,2013-11-14 21:31:00,
2013-11-14 16:33:00,73.2,58.0,30.16,ENE,69,11.1,11.1,61,0.00,,,0.00,TxWx,2013-11-14 21:33:00,
2013-11-14 16:34:00,73.2,58.0,30.16,ENE,69,14.2,14.9,60,0.00,,,0.00,TxWx,2013-11-14 21:34:00,
2013-11-14 16:35:00,73.1,57.0,30.16,East,91,19.8,21.0,58,0.00,,,0.00,TxWx,2013-11-14 21:35:00,
2013-11-14 16:36:00,73.4,57.0,30.16,ESE,114,17.9,17.9,58,0.00,,,0.00,TxWx,2013-11-14 21:36:00,
2013-11-14 16:39:00,73.6,60.0,30.16,ESE,114,16.1,17.9,61,0.00,,,0.00,TxWx,2013-11-14 21:39:00,
2013-11-14 16:40:00,73.2,58.0,30.15,NE,46,20.4,20.4,59,0.00,,,0.00,TxWx,2013-11-14 21:40:00,
2013-11-14 16:41:00,73.4,58.0,30.15,East,91,14.9,14.9,59,0.00,,,0.00,TxWx,2013-11-14 21:41:00,
2013-11-14 16:44:00,73.3,58.0,30.15,SSE,159,9.9,19.8,59,0.00,,,0.00,TxWx,2013-11-14 21:44:00,
2013-11-14 16:46:00,73.2,58.0,30.15,ENE,69,14.2,16.7,59,0.00,,,0.00,TxWx,2013-11-14 21:46:00,
2013-11-14 16:49:00,73.5,58.0,30.15,SE,136,11.8,17.3,60,0.00,,,0.00,TxWx,2013-11-14 21:49:00,
2013-11-14 16:51:00,73.9,59.0,30.15,ESE,114,16.7,17.9,60,0.00,,,0.00,TxWx,2013-11-14 21:51:00,
2013-11-14 16:52:00,73.5,59.0,30.16,East,91,16.1,16.1,60,0.00,,,0.00,TxWx,2013-11-14 21:52:00,
2013-11-14 16:54:00,73.3,57.0,30.15,East,91,16.7,16.7,58,0.00,,,0.00,TxWx,2013-11-14 21:54:00,
2013-11-14 16:55:00,73.3,57.0,30.15,SE,136,16.1,16.1,58,0.00,,,0.00,TxWx,2013-11-14 21:55:00,
2013-11-14 16:56:00,73.6,59.0,30.15,East,91,16.1,17.3,61,0.00,,,0.00,TxWx,2013-11-14 21:56:00,
2013-11-14 16:57:00,73.4,58.0,30.15,East,91,16.1,18.6,59,0.00,,,0.00,TxWx,2013-11-14 21:57:00,
2013-11-14 16:59:00,73.6,59.0,30.15,ENE,69,15.5,17.9,60,0.00,,,0.00,TxWx,2013-11-14 21:59:00,
2013-11-14 17:00:00,73.3,58.0,30.15,ESE,114,17.3,19.8,59,0.00,,,0.00,TxWx,2013-11-14 22:00:00,
2013-11-14 17:01:00,73.2,57.0,30.15,East,91,16.7,17.3,57,0.00,,,0.00,TxWx,2013-11-14 22:01:00,
2013-11-14 17:02:00,73.3,57.0,30.15,East,91,17.3,19.8,57,0.00,,,0.00,TxWx,2013-11-14 22:02:00,
2013-11-14 17:04:00,73.5,60.0,30.16,East,91,16.1,17.9,63,0.00,,,0.00,TxWx,2013-11-14 22:04:00,
2013-11-14 17:05:00,73.3,59.0,30.16,ESE,114,17.9,17.9,61,0.00,,,0.00,TxWx,2013-11-14 22:05:00,
2013-11-14 17:06:00,73.5,58.0,30.16,East,91,19.2,19.2,61,0.00,,,0.00,TxWx,2013-11-14 22:06:00,
2013-11-14 17:07:00,73.5,60.0,30.15,East,91,21.0,21.0,61,0.00,,,0.00,TxWx,2013-11-14 22:07:00,
2013-11-14 17:10:00,73.0,58.0,30.16,East,91,20.4,21.7,59,0.00,,,0.00,TxWx,2013-11-14 22:10:00,
2013-11-14 17:11:00,73.3,58.0,30.16,East,91,19.8,21.0,60,0.00,,,0.00,TxWx,2013-11-14 22:11:00,
2013-11-14 17:12:00,73.4,59.0,30.16,ESE,114,17.9,17.9,62,0.00,,,0.00,TxWx,2013-11-14 22:12:00,
2013-11-14 17:14:00,73.2,59.0,30.16,ESE,114,19.8,20.4,61,0.00,,,0.00,TxWx,2013-11-14 22:14:00,
2013-11-14 17:15:00,73.1,59.0,30.16,East,91,17.3,19.2,62,0.00,,,0.00,TxWx,2013-11-14 22:15:00,
2013-11-14 17:16:00,73.3,59.0,30.16,ESE,114,12.4,13.0,62,0.00,,,0.00,TxWx,2013-11-14 22:16:00,
2013-11-14 17:17:00,73.6,60.0,30.16,ENE,69,13.0,13.0,63,0.00,,,0.00,TxWx,2013-11-14 22:17:00,
2013-11-14 17:18:00,73.5,59.0,30.17,East,91,9.9,10.5,62,0.00,,,0.00,TxWx,2013-11-14 22:18:00,
2013-11-14 17:19:00,73.1,58.0,30.16,ENE,69,17.3,18.6,61,0.00,,,0.00,TxWx,2013-11-14 22:19:00,
2013-11-14 17:21:00,73.6,60.0,30.16,East,91,19.2,21.0,63,0.00,,,0.00,TxWx,2013-11-14 22:21:00,
2013-11-14 17:22:00,73.3,59.0,30.16,East,91,14.2,14.2,62,0.00,,,0.00,TxWx,2013-11-14 22:22:00,
2013-11-14 17:23:00,73.6,61.0,30.16,East,91,19.2,19.2,64,0.00,,,0.00,TxWx,2013-11-14 22:23:00,
2013-11-14 17:25:00,73.4,59.0,30.17,East,91,19.8,19.8,63,0.00,,,0.00,TxWx,2013-11-14 22:25:00,
2013-11-14 17:26:00,73.4,59.0,30.17,ESE,114,16.1,17.3,61,0.00,,,0.00,TxWx,2013-11-14 22:26:00,
2013-11-14 17:27:00,73.3,59.0,30.17,East,91,14.9,18.6,62,0.00,,,0.00,TxWx,2013-11-14 22:27:00,
2013-11-14 17:29:00,73.3,60.0,30.17,ENE,69,15.5,19.2,63,0.00,,,0.00,TxWx,2013-11-14 22:29:00,
2013-11-14 17:31:00,73.4,60.0,30.16,East,91,21.0,22.3,64,0.00,,,0.00,TxWx,2013-11-14 22:31:00,
2013-11-14 17:32:00,73.3,60.0,30.17,ESE,114,13.6,15.5,63,0.00,,,0.00,TxWx,2013-11-14 22:32:00,
2013-11-14 17:33:00,73.6,61.0,30.17,ENE,69,14.2,17.3,64,0.00,,,0.00,TxWx,2013-11-14 22:33:00,
2013-11-14 17:34:00,73.4,60.0,30.17,East,91,19.8,24.8,64,0.00,,,0.00,TxWx,2013-11-14 22:34:00,
2013-11-14 17:36:00,73.2,59.0,30.17,ENE,69,16.7,17.9,63,0.00,,,0.00,TxWx,2013-11-14 22:36:00,
2013-11-14 17:37:00,73.2,59.0,30.17,East,91,14.9,14.9,62,0.00,,,0.00,TxWx,2013-11-14 22:37:00,
2013-11-14 17:38:00,73.5,61.0,30.17,East,91,17.9,17.9,63,0.00,,,0.00,TxWx,2013-11-14 22:38:00,
2013-11-14 17:39:00,73.6,61.0,30.17,ESE,114,17.9,18.6,64,0.00,,,0.00,TxWx,2013-11-14 22:39:00,
2013-11-14 17:42:00,73.5,61.0,30.17,ESE,114,19.2,20.4,64,0.00,,,0.00,TxWx,2013-11-14 22:42:00,
2013-11-14 17:43:00,73.7,61.0,30.17,ESE,114,21.0,21.0,65,0.00,,,0.00,TxWx,2013-11-14 22:43:00,
2013-11-14 17:45:00,73.5,59.0,30.17,East,91,21.7,22.3,63,0.00,,,0.00,TxWx,2013-11-14 22:45:00,
2013-11-14 17:47:00,73.3,60.0,30.17,East,91,14.2,17.9,65,0.00,,,0.00,TxWx,2013-11-14 22:47:00,
2013-11-14 17:48:00,73.3,60.0,30.17,ENE,69,11.1,11.1,64,0.00,,,0.00,TxWx,2013-11-14 22:48:00,
2013-11-14 17:50:00,73.2,60.0,30.17,East,91,17.9,18.6,63,0.00,,,0.00,TxWx,2013-11-14 22:50:00,
2013-11-14 17:51:00,73.5,61.0,30.17,East,91,14.9,19.2,65,0.00,,,0.00,TxWx,2013-11-14 22:51:00,
2013-11-14 17:52:00,73.0,60.0,30.17,NE,46,16.1,18.6,63,0.00,,,0.00,TxWx,2013-11-14 22:52:00,
2013-11-14 17:53:00,73.4,60.0,30.17,East,91,17.3,17.3,63,0.00,,,0.00,TxWx,2013-11-14 22:53:00,
2013-11-14 17:55:00,73.1,59.0,30.17,East,91,20.4,22.3,63,0.00,,,0.00,TxWx,2013-11-14 22:55:00,
2013-11-14 17:56:00,73.2,60.0,30.17,East,91,22.3,24.1,63,0.00,,,0.00,TxWx,2013-11-14 22:56:00,
2013-11-14 17:58:00,73.3,60.0,30.16,East,91,20.4,22.9,63,0.00,,,0.00,TxWx,2013-11-14 22:58:00,
2013-11-14 17:59:00,73.2,60.0,30.16,East,91,24.8,24.8,64,0.00,,,0.00,TxWx,2013-11-14 22:59:00,
2013-11-14 18:01:00,73.4,60.0,30.16,East,91,17.3,17.3,65,0.00,,,0.00,TxWx,2013-11-14 23:01:00,
2013-11-14 18:02:00,73.2,60.0,30.17,East,91,20.4,20.4,63,0.00,,,0.00,TxWx,2013-11-14 23:02:00,
2013-11-14 18:03:00,73.1,59.0,30.17,East,91,17.3,17.3,62,0.00,,,0.00,TxWx,2013-11-14 23:03:00,
2013-11-14 18:04:00,73.2,60.0,30.17,East,91,16.7,17.3,63,0.00,,,0.00,TxWx,2013-11-14 23:04:00,
2013-11-14 18:06:00,73.4,60.0,30.17,ENE,69,14.9,15.5,63,0.00,,,0.00,TxWx,2013-11-14 23:06:00,
2013-11-14 18:07:00,73.5,60.0,30.16,East,91,19.8,19.8,64,0.00,,,0.00,TxWx,2013-11-14 23:07:00,
2013-11-14 18:08:00,73.1,59.0,30.17,East,91,19.8,19.8,62,0.00,,,0.00,TxWx,2013-11-14 23:08:00,
2013-11-14 18:09:00,73.1,59.0,30.17,East,91,20.4,20.4,62,0.00,,,0.00,TxWx,2013-11-14 23:09:00,
2013-11-14 18:12:00,74.0,61.0,30.17,East,91,17.9,17.9,65,0.00,,,0.00,TxWx,2013-11-14 23:12:00,
2013-11-14 18:13:00,73.6,61.0,30.17,ESE,114,23.5,23.5,64,0.00,,,0.00,TxWx,2013-11-14 23:13:00,
2013-11-14 18:14:00,73.4,59.0,30.17,East,91,25.4,25.4,63,0.00,,,0.00,TxWx,2013-11-14 23:14:00,
2013-11-14 18:16:00,73.5,60.0,30.17,East,91,18.6,21.7,62,0.00,,,0.00,TxWx,2013-11-14 23:16:00,
2013-11-14 18:17:00,73.5,60.0,30.17,East,91,19.2,19.2,62,0.00,,,0.00,TxWx,2013-11-14 23:17:00,
2013-11-14 18:18:00,73.3,59.0,30.23,East,91,23.5,24.1,62,0.00,,,0.00,TxWx,2013-11-14 23:18:00,
2013-11-14 18:19:00,73.3,59.0,30.17,East,91,22.3,24.1,62,0.00,,,0.00,TxWx,2013-11-14 23:19:00,
2013-11-14 18:21:00,73.6,60.0,30.17,East,91,19.8,21.7,63,0.00,,,0.00,TxWx,2013-11-14 23:21:00,
2013-11-14 18:22:00,73.3,59.0,30.17,SE,136,17.9,17.9,62,0.00,,,0.00,TxWx,2013-11-14 23:22:00,
2013-11-14 18:23:00,73.6,61.0,30.17,East,91,22.3,22.3,63,0.00,,,0.00,TxWx,2013-11-14 23:23:00,
2013-11-14 18:24:00,73.7,61.0,30.17,East,91,21.0,21.7,63,0.00,,,0.00,TxWx,2013-11-14 23:24:00,
2013-11-14 18:26:00,73.3,59.0,30.17,East,91,19.2,19.2,62,0.00,,,0.00,TxWx,2013-11-14 23:26:00,
2013-11-14 18:28:00,73.4,58.0,30.17,East,91,17.3,19.8,60,0.00,,,0.00,TxWx,2013-11-14 23:28:00,
2013-11-14 18:29:00,73.3,58.0,30.17,ENE,69,16.7,16.7,60,0.00,,,0.00,TxWx,2013-11-14 23:29:00,
2013-11-14 18:30:00,73.7,59.0,30.17,East,91,12.4,15.5,61,0.00,,,0.00,TxWx,2013-11-14 23:30:00,
2013-11-14 18:31:00,73.3,59.0,30.17,ESE,114,21.7,21.7,62,0.00,,,0.00,TxWx,2013-11-14 23:31:00,
2013-11-14 18:33:00,73.4,59.0,30.18,East,91,17.9,17.9,62,0.00,,,0.00,TxWx,2013-11-14 23:33:00,
2013-11-14 18:34:00,73.3,58.0,30.18,East,91,24.1,24.1,61,0.00,,,0.00,TxWx,2013-11-14 23:34:00,
2013-11-14 18:35:00,73.8,60.0,30.18,East,91,16.1,16.1,63,0.00,,,0.00,TxWx,2013-11-14 23:35:00,
2013-11-14 18:38:00,73.8,60.0,30.18,ENE,69,18.6,18.6,63,0.00,,,0.00,TxWx,2013-11-14 23:38:00,
2013-11-14 18:39:00,73.5,59.0,30.18,East,91,16.7,21.0,61,0.00,,,0.00,TxWx,2013-11-14 23:39:00,
2013-11-14 18:40:00,73.7,59.0,30.18,East,91,19.2,19.2,60,0.00,,,0.00,TxWx,2013-11-14 23:40:00,
2013-11-14 18:43:00,74.0,60.0,30.18,ENE,69,17.9,17.9,62,0.00,,,0.00,TxWx,2013-11-14 23:43:00,
2013-11-14 18:44:00,74.0,61.0,30.18,ENE,69,17.9,21.7,63,0.00,,,0.00,TxWx,2013-11-14 23:44:00,
2013-11-14 18:45:00,73.4,58.0,30.17,East,91,22.9,25.4,61,0.00,,,0.00,TxWx,2013-11-14 23:45:00,
2013-11-14 18:46:00,73.4,58.0,30.18,East,91,22.3,22.3,59,0.00,,,0.00,TxWx,2013-11-14 23:46:00,
2013-11-14 18:48:00,73.4,58.0,30.18,East,91,18.6,19.2,60,0.00,,,0.00,TxWx,2013-11-14 23:48:00,
2013-11-14 18:49:00,73.6,60.0,30.18,East,91,21.0,22.3,62,0.00,,,0.00,TxWx,2013-11-14 23:49:00,
2013-11-14 18:50:00,73.5,60.0,30.18,East,91,16.7,18.6,61,0.00,,,0.00,TxWx,2013-11-14 23:50:00,
2013-11-14 18:51:00,73.7,60.0,30.18,East,91,17.9,18.6,63,0.00,,,0.00,TxWx,2013-11-14 23:51:00,
2013-11-14 18:54:00,73.8,60.0,30.18,East,91,16.1,17.9,63,0.00,,,0.00,TxWx,2013-11-14 23:54:00,
2013-11-14 18:55:00,73.6,60.0,30.18,ENE,69,21.0,21.0,63,0.00,,,0.00,TxWx,2013-11-14 23:55:00,
2013-11-14 18:56:00,73.6,60.0,30.18,East,91,13.6,13.6,63,0.00,,,0.00,TxWx,2013-11-14 23:56:00,
2013-11-14 19:00:00,73.9,60.0,30.18,ENE,69,17.9,17.9,63,0.00,,,0.00,TxWx,2013-11-15 00:00:00,
2013-11-14 19:01:00,73.4,58.0,30.18,ESE,114,21.7,21.7,60,0.00,,,0.00,TxWx,2013-11-15 00:01:00,
2013-11-14 19:05:00,73.9,59.0,30.18,East,91,16.1,17.9,61,0.00,,,0.00,TxWx,2013-11-15 00:05:00,
2013-11-14 19:06:00,73.7,60.0,30.18,ESE,114,16.1,16.1,61,0.00,,,0.00,TxWx,2013-11-15 00:06:00,
2013-11-14 19:10:00,73.8,60.0,30.17,ESE,114,18.6,18.6,61,0.00,,,0.00,TxWx,2013-11-15 00:10:00,
2013-11-14 19:11:00,73.6,59.0,30.17,ESE,114,15.5,17.3,60,0.00,,,0.00,TxWx,2013-11-15 00:11:00,
2013-11-14 19:15:00,73.8,60.0,30.17,East,91,9.3,14.2,62,0.00,,,0.00,TxWx,2013-11-15 00:15:00,
2013-11-14 19:16:00,73.8,60.0,30.17,East,91,17.9,19.2,62,0.00,,,0.00,TxWx,2013-11-15 00:16:00,
2013-11-14 19:17:00,73.8,60.0,30.17,East,91,17.3,22.9,63,0.00,,,0.00,TxWx,2013-11-15 00:17:00,
2013-11-14 19:18:00,73.3,58.0,30.17,East,91,19.8,19.8,61,0.00,,,0.00,TxWx,2013-11-15 00:18:00,
2013-11-14 19:20:00,73.8,60.0,30.16,East,91,18.6,18.6,63,0.00,,,0.00,TxWx,2013-11-15 00:20:00,
2013-11-14 19:21:00,74.1,61.0,30.16,ESE,114,20.4,20.4,64,0.00,,,0.00,TxWx,2013-11-15 00:21:00,
2013-11-14 19:22:00,73.4,59.0,30.16,East,91,18.6,18.6,62,0.00,,,0.00,TxWx,2013-11-15 00:22:00,
2013-11-14 19:23:00,73.7,60.0,30.16,ESE,114,24.8,24.8,62,0.00,,,0.00,TxWx,2013-11-15 00:23:00,
2013-11-14 19:26:00,73.4,58.0,30.17,East,91,23.5,23.5,60,0.00,,,0.00,TxWx,2013-11-15 00:26:00,
2013-11-14 19:27:00,73.7,60.0,30.16,East,91,22.3,24.1,62,0.00,,,0.00,TxWx,2013-11-15 00:27:00,
2013-11-14 19:28:00,73.8,59.0,30.16,East,91,18.6,18.6,60,0.00,,,0.00,TxWx,2013-11-15 00:28:00,
2013-11-14 19:31:00,73.9,60.0,30.16,East,91,24.1,24.1,61,0.00,,,0.00,TxWx,2013-11-15 00:31:00,
2013-11-14 19:32:00,74.2,60.0,30.16,East,91,17.3,17.3,63,0.00,,,0.00,TxWx,2013-11-15 00:32:00,
2013-11-14 19:33:00,74.1,61.0,30.16,ESE,114,17.9,19.8,63,0.00,,,0.00,TxWx,2013-11-15 00:33:00,
2013-11-14 19:36:00,73.5,59.0,30.16,East,91,22.9,22.9,60,0.00,,,0.00,TxWx,2013-11-15 00:36:00,
2013-11-14 19:37:00,73.5,60.0,30.16,East,91,27.8,27.8,61,0.00,,,0.00,TxWx,2013-11-15 00:37:00,
2013-11-14 19:38:00,73.6,60.0,30.17,ESE,114,25.4,25.4,61,0.00,,,0.00,TxWx,2013-11-15 00:38:00,
2013-11-14 19:41:00,74.0,60.0,30.17,East,91,17.9,17.9,62,0.00,,,0.00,TxWx,2013-11-15 00:41:00,
2013-11-14 19:42:00,73.8,60.0,30.17,ESE,114,19.8,20.4,62,0.00,,,0.00,TxWx,2013-11-15 00:42:00,
2013-11-14 19:43:00,73.6,59.0,30.17,SE,136,19.2,22.3,61,0.00,,,0.00,TxWx,2013-11-15 00:43:00,
2013-11-14 19:44:00,73.8,59.0,30.17,East,91,20.4,21.0,61,0.00,,,0.00,TxWx,2013-11-15 00:44:00,
2013-11-14 19:46:00,73.7,59.0,30.17,East,91,17.9,17.9,59,0.00,,,0.00,TxWx,2013-11-15 00:46:00,
2013-11-14 19:47:00,74.0,60.0,30.17,East,91,17.3,17.3,61,0.00,,,0.00,TxWx,2013-11-15 00:47:00,
2013-11-14 19:48:00,73.8,59.0,30.17,East,91,13.0,13.0,61,0.00,,,0.00,TxWx,2013-11-15 00:48:00,
2013-11-14 19:49:00,73.9,59.0,30.17,East,91,17.9,17.9,61,0.00,,,0.00,TxWx,2013-11-15 00:49:00,
2013-11-14 19:51:00,73.5,58.0,30.17,ESE,114,16.7,17.9,58,0.00,,,0.00,TxWx,2013-11-15 00:51:00,
2013-11-14 19:52:00,73.6,59.0,30.17,East,91,17.3,17.3,59,0.00,,,0.00,TxWx,2013-11-15 00:52:00,
2013-11-14 19:53:00,73.8,59.0,30.17,East,91,16.1,17.3,60,0.00,,,0.00,TxWx,2013-11-15 00:53:00,
2013-11-14 19:54:00,73.5,58.0,30.17,East,91,18.6,21.0,59,0.00,,,0.00,TxWx,2013-11-15 00:54:00,
2013-11-14 19:57:00,73.6,58.0,30.18,East,91,18.6,18.6,59,0.00,,,0.00,TxWx,2013-11-15 00:57:00,
2013-11-14 19:58:00,73.6,58.0,30.18,East,91,19.8,21.7,58,0.00,,,0.00,TxWx,2013-11-15 00:58:00,
2013-11-14 19:59:00,73.7,58.0,30.18,ENE,69,26.6,26.6,59,0.00,,,0.00,TxWx,2013-11-15 00:59:00,
2013-11-14 20:02:00,73.7,58.0,30.18,ESE,114,21.7,22.3,57,0.00,,,0.00,TxWx,2013-11-15 01:02:00,
2013-11-14 20:03:00,73.9,59.0,30.18,East,91,14.2,16.1,59,0.00,,,0.00,TxWx,2013-11-15 01:03:00,
2013-11-14 20:05:00,73.7,58.0,30.18,East,91,14.9,14.9,58,0.00,,,0.00,TxWx,2013-11-15 01:05:00,
2013-11-14 20:06:00,73.9,59.0,30.18,East,91,17.9,17.9,59,0.00,,,0.00,TxWx,2013-11-15 01:06:00,
2013-11-14 20:07:00,73.9,60.0,30.18,East,91,13.0,13.6,61,0.00,,,0.00,TxWx,2013-11-15 01:07:00,
2013-11-14 20:09:00,73.6,58.0,30.18,East,91,23.5,23.5,59,0.00,,,0.00,TxWx,2013-11-15 01:09:00,
2013-11-14 20:10:00,73.9,58.0,30.17,ESE,114,22.3,22.3,57,0.00,,,0.00,TxWx,2013-11-15 01:10:00,
2013-11-14 20:11:00,73.7,57.0,30.17,ESE,114,22.9,22.9,56,0.00,,,0.00,TxWx,2013-11-15 01:11:00,
2013-11-14 20:12:00,73.9,57.0,30.17,ESE,114,21.0,21.0,56,0.00,,,0.00,TxWx,2013-11-15 01:12:00,
2013-11-14 20:14:00,73.9,58.0,30.18,ESE,114,19.8,19.8,57,0.00,,,0.00,TxWx,2013-11-15 01:14:00,
2013-11-14 20:15:00,73.7,58.0,30.18,East,91,21.7,22.3,57,0.00,,,0.00,TxWx,2013-11-15 01:15:00,
2013-11-14 20:16:00,74.2,58.0,30.18,ESE,114,18.6,21.0,58,0.00,,,0.00,TxWx,2013-11-15 01:16:00,
2013-11-14 20:17:00,74.0,59.0,30.18,East,91,15.5,17.9,59,0.00,,,0.00,TxWx,2013-11-15 01:17:00,
2013-11-14 20:18:00,73.8,58.0,30.18,East,91,19.2,19.2,59,0.00,,,0.00,TxWx,2013-11-15 01:18:00,
2013-11-14 20:19:00,73.5,58.0,30.18,East,91,16.7,16.7,59,0.00,,,0.00,TxWx,2013-11-15 01:19:00,
2013-11-14 20:20:00,73.7,58.0,30.18,East,91,12.4,12.4,58,0.00,,,0.00,TxWx,2013-11-15 01:20:00,
2013-11-14 20:21:00,73.7,59.0,30.18,East,91,13.6,13.6,59,0.00,,,0.00,TxWx,2013-11-15 01:21:00,
2013-11-14 20:23:00,73.8,58.0,30.17,ESE,114,19.8,19.8,57,0.00,,,0.00,TxWx,2013-11-15 01:23:00,
2013-11-14 20:24:00,73.6,58.0,30.18,ESE,114,24.8,26.0,58,0.00,,,0.00,TxWx,2013-11-15 01:24:00,
2013-11-14 20:25:00,73.5,58.0,30.18,East,91,19.8,22.9,58,0.00,,,0.00,TxWx,2013-11-15 01:25:00,
2013-11-14 20:27:00,73.5,57.0,30.18,East,91,13.0,19.2,57,0.00,,,0.00,TxWx,2013-11-15 01:27:00,
2013-11-14 20:28:00,73.6,58.0,30.18,ENE,69,12.4,12.4,59,0.00,,,0.00,TxWx,2013-11-15 01:28:00,
2013-11-14 20:29:00,73.9,59.0,30.17,ESE,114,13.0,16.7,59,0.00,,,0.00,TxWx,2013-11-15 01:29:00,
2013-11-14 20:30:00,73.5,58.0,30.17,ENE,69,16.1,16.1,58,0.00,,,0.00,TxWx,2013-11-15 01:30:00,
2013-11-14 20:31:00,73.9,59.0,30.17,ENE,69,16.7,16.7,60,0.00,,,0.00,TxWx,2013-11-15 01:31:00,
2013-11-14 20:33:00,73.9,60.0,30.17,ENE,69,22.3,22.3,61,0.00,,,0.00,TxWx,2013-11-15 01:33:00,
2013-11-14 20:34:00,73.9,59.0,30.17,ESE,114,19.2,22.9,60,0.00,,,0.00,TxWx,2013-11-15 01:34:00,
2013-11-14 20:35:00,73.7,58.0,30.17,East,91,19.2,21.0,57,0.00,,,0.00,TxWx,2013-11-15 01:35:00,
2013-11-14 20:36:00,73.9,58.0,30.17,ENE,69,16.7,21.0,58,0.00,,,0.00,TxWx,2013-11-15 01:36:00,
2013-11-14 20:38:00,73.8,58.0,30.16,ENE,69,16.7,20.4,57,0.00,,,0.00,TxWx,2013-11-15 01:38:00,
2013-11-14 20:39:00,73.8,58.0,30.17,East,91,19.8,22.9,58,0.00,,,0.00,TxWx,2013-11-15 01:39:00,
2013-11-14 20:40:00,73.7,58.0,30.17,ESE,114,20.4,20.4,57,0.00,,,0.00,TxWx,2013-11-15 01:40:00,
2013-11-14 20:41:00,73.9,58.0,30.17,East,91,21.0,21.7,58,0.00,,,0.00,TxWx,2013-11-15 01:41:00,
2013-11-14 20:43:00,73.5,58.0,30.17,ENE,69,16.1,21.0,59,0.00,,,0.00,TxWx,2013-11-15 01:43:00,
2013-11-14 20:45:00,73.6,60.0,30.17,ESE,114,21.7,27.2,61,0.00,,,0.00,TxWx,2013-11-15 01:45:00,
2013-11-14 20:46:00,73.7,59.0,30.17,East,91,20.4,22.9,60,0.00,,,0.00,TxWx,2013-11-15 01:46:00,
2013-11-14 20:47:00,73.6,58.0,30.17,East,91,22.9,22.9,59,0.00,,,0.00,TxWx,2013-11-15 01:47:00,
2013-11-14 20:49:00,73.8,58.0,30.17,East,91,23.5,23.5,59,0.00,,,0.00,TxWx,2013-11-15 01:49:00,
2013-11-14 20:50:00,73.6,58.0,30.17,East,91,16.1,18.6,58,0.00,,,0.00,TxWx,2013-11-15 01:50:00,
2013-11-14 20:51:00,73.6,59.0,30.17,East,91,22.9,24.1,60,0.00,,,0.00,TxWx,2013-11-15 01:51:00,
2013-11-14 20:52:00,74.1,59.0,30.17,East,91,19.2,21.7,61,0.00,,,0.00,TxWx,2013-11-15 01:52:00,
2013-11-14 20:53:00,74.1,60.0,30.17,East,91,22.9,22.9,62,0.00,,,0.00,TxWx,2013-11-15 01:53:00,
2013-11-14 20:54:00,74.0,58.0,30.17,East,91,21.0,22.9,58,0.00,,,0.00,TxWx,2013-11-15 01:54:00,
2013-11-14 20:55:00,74.0,59.0,30.17,East,91,15.5,19.8,59,0.00,,,0.00,TxWx,2013-11-15 01:55:00,
2013-11-14 20:56:00,73.8,59.0,30.17,ESE,114,23.5,23.5,59,0.00,,,0.00,TxWx,2013-11-15 01:56:00,
2013-11-14 20:58:00,74.1,59.0,30.17,East,91,19.2,19.8,61,0.00,,,0.00,TxWx,2013-11-15 01:58:00,
2013-11-14 20:59:00,73.9,59.0,30.17,ENE,69,19.8,21.7,60,0.00,,,0.00,TxWx,2013-11-15 01:59:00,
2013-11-14 21:01:00,73.8,58.0,30.17,SE,136,14.9,17.3,59,0.00,,,0.00,TxWx,2013-11-15 02:01:00,
2013-11-14 21:03:00,74.4,61.0,30.17,ENE,69,21.0,21.0,64,0.00,,,0.00,TxWx,2013-11-15 02:03:00,
2013-11-14 21:04:00,74.0,60.0,30.17,East,91,18.6,18.6,63,0.00,,,0.00,TxWx,2013-11-15 02:04:00,
2013-11-14 21:06:00,74.0,59.0,30.17,East,91,18.6,21.7,60,0.00,,,0.00,TxWx,2013-11-15 02:06:00,
2013-11-14 21:07:00,74.3,60.0,30.17,East,91,17.3,17.3,62,0.00,,,0.00,TxWx,2013-11-15 02:07:00,
2013-11-14 21:08:00,74.0,59.0,30.17,East,91,20.4,20.4,61,0.00,,,0.00,TxWx,2013-11-15 02:08:00,
2013-11-14 21:09:00,73.6,59.0,30.17,East,91,17.9,20.4,61,0.00,,,0.00,TxWx,2013-11-15 02:09:00,
2013-11-14 21:11:00,73.7,58.0,30.17,ENE,69,17.3,19.8,58,0.00,,,0.00,TxWx,2013-11-15 02:11:00,
2013-11-14 21:12:00,74.0,59.0,30.17,East,91,19.8,21.0,60,0.00,,,0.00,TxWx,2013-11-15 02:12:00,
2013-11-14 21:13:00,73.9,59.0,30.17,ESE,114,21.7,22.3,61,0.00,,,0.00,TxWx,2013-11-15 02:13:00,
2013-11-14 21:14:00,74.0,59.0,30.17,ESE,114,19.2,19.8,60,0.00,,,0.00,TxWx,2013-11-15 02:14:00,
2013-11-14 21:15:00,74.2,60.0,30.18,East,91,25.4,25.4,61,0.00,,,0.00,TxWx,2013-11-15 02:15:00,
2013-11-14 21:17:00,74.0,59.0,30.18,ESE,114,22.9,24.8,59,0.00,,,0.00,TxWx,2013-11-15 02:17:00,
2013-11-14 21:18:00,73.9,58.0,30.17,East,91,18.6,21.0,59,0.00,,,0.00,TxWx,2013-11-15 02:18:00,
2013-11-14 21:20:00,74.1,59.0,30.17,East,91,16.7,16.7,60,0.00,,,0.00,TxWx,2013-11-15 02:20:00,
2013-11-14 21:22:00,74.1,59.0,30.17,East,91,22.3,22.3,59,0.00,,,0.00,TxWx,2013-11-15 02:22:00,
2013-11-14 21:23:00,74.0,59.0,30.17,East,91,21.7,21.7,60,0.00,,,0.00,TxWx,2013-11-15 02:23:00,
2013-11-14 21:25:00,74.2,59.0,30.17,East,91,20.4,21.7,60,0.00,,,0.00,TxWx,2013-11-15 02:25:00,
2013-11-14 21:27:00,73.9,58.0,30.17,East,91,21.0,21.0,59,0.00,,,0.00,TxWx,2013-11-15 02:27:00,
2013-11-14 21:28:00,74.0,60.0,30.17,ESE,114,24.1,24.8,62,0.00,,,0.00,TxWx,2013-11-15 02:28:00,
2013-11-14 21:30:00,74.2,59.0,30.17,East,91,21.7,22.3,61,0.00,,,0.00,TxWx,2013-11-15 02:30:00,
2013-11-14 21:31:00,74.0,59.0,30.17,East,91,21.0,22.3,61,0.00,,,0.00,TxWx,2013-11-15 02:31:00,
2013-11-14 21:32:00,74.2,60.0,30.17,East,91,26.0,28.5,61,0.00,,,0.00,TxWx,2013-11-15 02:32:00,
2013-11-14 21:33:00,74.0,59.0,30.17,East,91,23.5,27.2,60,0.00,,,0.00,TxWx,2013-11-15 02:33:00,
2013-11-14 21:34:00,73.8,58.0,30.17,ESE,114,17.9,19.2,58,0.00,,,0.00,TxWx,2013-11-15 02:34:00,
2013-11-14 21:35:00,74.1,60.0,30.17,East,91,22.9,24.1,61,0.00,,,0.00,TxWx,2013-11-15 02:35:00,
2013-11-14 21:36:00,73.9,59.0,30.17,NE,46,17.9,21.0,61,0.00,,,0.00,TxWx,2013-11-15 02:36:00,
2013-11-14 21:38:00,74.1,59.0,30.17,ESE,114,24.1,24.1,61,0.00,,,0.00,TxWx,2013-11-15 02:38:00,
2013-11-14 21:39:00,73.9,59.0,30.17,ESE,114,19.8,22.3,60,0.00,,,0.00,TxWx,2013-11-15 02:39:00,
2013-11-14 21:40:00,74.0,59.0,30.17,East,91,24.8,25.4,60,0.00,,,0.00,TxWx,2013-11-15 02:40:00,
2013-11-14 21:41:00,73.8,59.0,30.17,East,91,20.4,20.4,59,0.00,,,0.00,TxWx,2013-11-15 02:41:00,
2013-11-14 21:42:00,74.1,59.0,30.17,East,91,17.3,18.6,60,0.00,,,0.00,TxWx,2013-11-15 02:42:00,
2013-11-14 21:44:00,73.9,59.0,30.17,East,91,24.8,24.8,61,0.00,,,0.00,TxWx,2013-11-15 02:44:00,
2013-11-14 21:45:00,73.9,59.0,30.18,East,91,22.9,22.9,61,0.00,,,0.00,TxWx,2013-11-15 02:45:00,
2013-11-14 21:47:00,73.8,59.0,30.17,East,91,27.8,27.8,60,0.00,,,0.00,TxWx,2013-11-15 02:47:00,
2013-11-14 21:49:00,74.4,60.0,30.17,ESE,114,21.7,21.7,61,0.00,,,0.00,TxWx,2013-11-15 02:49:00,
2013-11-14 21:50:00,74.0,59.0,30.17,East,91,24.1,24.1,59,0.00,,,0.00,TxWx,2013-11-15 02:50:00,
2013-11-14 21:52:00,74.1,59.0,30.17,East,91,21.7,21.7,59,0.00,,,0.00,TxWx,2013-11-15 02:52:00,
2013-11-14 21:53:00,74.3,59.0,30.17,ESE,114,19.2,19.2,61,0.00,,,0.00,TxWx,2013-11-15 02:53:00,
2013-11-14 21:54:00,74.3,59.0,30.17,East,91,20.4,21.7,60,0.00,,,0.00,TxWx,2013-11-15 02:54:00,
2013-11-14 21:55:00,74.2,60.0,30.17,ESE,114,19.8,20.4,61,0.00,,,0.00,TxWx,2013-11-15 02:55:00,
2013-11-14 21:56:00,74.0,60.0,30.17,ESE,114,21.7,22.9,61,0.00,,,0.00,TxWx,2013-11-15 02:56:00,
2013-11-14 21:58:00,74.3,60.0,30.17,East,91,18.6,18.6,61,0.00,,,0.00,TxWx,2013-11-15 02:58:00,
2013-11-14 22:00:00,73.8,58.0,30.17,East,91,24.1,24.1,59,0.00,,,0.00,TxWx,2013-11-15 03:00:00,
2013-11-14 22:01:00,74.2,59.0,30.17,East,91,21.7,21.7,60,0.00,,,0.00,TxWx,2013-11-15 03:01:00,
2013-11-14 22:03:00,74.0,59.0,30.17,East,91,22.3,22.3,59,0.00,,,0.00,TxWx,2013-11-15 03:03:00,
2013-11-14 22:05:00,74.3,59.0,30.17,East,91,20.4,20.4,60,0.00,,,0.00,TxWx,2013-11-15 03:05:00,
2013-11-14 22:06:00,74.0,59.0,30.17,East,91,20.4,20.4,61,0.00,,,0.00,TxWx,2013-11-15 03:06:00,
2013-11-14 22:08:00,74.4,61.0,30.17,ESE,114,21.7,24.8,64,0.00,,,0.00,TxWx,2013-11-15 03:08:00,
2013-11-14 22:10:00,74.2,60.0,30.17,East,91,17.9,19.8,62,0.00,,,0.00,TxWx,2013-11-15 03:10:00,
2013-11-14 22:11:00,74.4,60.0,30.17,East,91,23.5,26.0,63,0.00,,,0.00,TxWx,2013-11-15 03:11:00,
2013-11-14 22:13:00,74.0,60.0,30.17,East,91,21.0,21.0,61,0.00,,,0.00,TxWx,2013-11-15 03:13:00,
2013-11-14 22:14:00,74.1,60.0,30.17,East,91,21.7,21.7,62,0.00,,,0.00,TxWx,2013-11-15 03:14:00,
2013-11-14 22:16:00,74.5,61.0,30.17,East,91,13.6,16.1,62,0.00,,,0.00,TxWx,2013-11-15 03:16:00,
2013-11-14 22:19:00,74.3,60.0,30.17,East,91,22.9,22.9,62,0.00,,,0.00,TxWx,2013-11-15 03:19:00,
2013-11-14 22:21:00,74.1,60.0,30.17,East,91,24.1,24.1,62,0.00,,,0.00,TxWx,2013-11-15 03:21:00,
2013-11-14 22:22:00,74.1,59.0,30.16,East,91,19.8,19.8,61,0.00,,,0.00,TxWx,2013-11-15 03:22:00,
2013-11-14 22:24:00,74.0,60.0,30.16,East,91,24.1,24.8,61,0.00,,,0.00,TxWx,2013-11-15 03:24:00,
2013-11-14 22:25:00,74.1,59.0,30.16,East,91,22.9,24.8,60,0.00,,,0.00,TxWx,2013-11-15 03:25:00,
2013-11-14 22:26:00,74.1,59.0,30.17,SE,136,21.0,24.1,61,0.00,,,0.00,TxWx,2013-11-15 03:26:00,
2013-11-14 22:27:00,74.3,60.0,30.16,East,91,22.9,24.1,61,0.00,,,0.00,TxWx,2013-11-15 03:27:00,
2013-11-14 22:29:00,74.2,60.0,30.16,East,91,24.1,24.1,62,0.00,,,0.00,TxWx,2013-11-15 03:29:00,
2013-11-14 22:30:00,74.4,60.0,30.16,East,91,19.8,19.8,62,0.00,,,0.00,TxWx,2013-11-15 03:30:00,
2013-11-14 22:31:00,74.0,59.0,30.16,East,91,20.4,23.5,61,0.00,,,0.00,TxWx,2013-11-15 03:31:00,
2013-11-14 22:32:00,74.3,59.0,30.16,East,91,20.4,24.8,61,0.00,,,0.00,TxWx,2013-11-15 03:32:00,
2013-11-14 22:33:00,74.3,60.0,30.16,ESE,114,19.8,22.3,62,0.00,,,0.00,TxWx,2013-11-15 03:33:00,
2013-11-14 22:34:00,74.2,60.0,30.16,East,91,18.6,22.9,62,0.00,,,0.00,TxWx,2013-11-15 03:34:00,
2013-11-14 22:35:00,74.2,59.0,30.16,ESE,114,19.8,21.7,61,0.00,,,0.00,TxWx,2013-11-15 03:35:00,
2013-11-14 22:37:00,73.9,59.0,30.16,East,91,20.4,20.4,59,0.00,,,0.00,TxWx,2013-11-15 03:37:00,
2013-11-14 22:38:00,74.1,59.0,30.16,East,91,19.2,19.8,60,0.00,,,0.00,TxWx,2013-11-15 03:38:00,
2013-11-14 22:39:00,74.2,60.0,30.16,East,91,18.6,22.3,61,0.00,,,0.00,TxWx,2013-11-15 03:39:00,
2013-11-14 22:41:00,74.3,59.0,30.16,East,91,18.6,20.4,61,0.00,,,0.00,TxWx,2013-11-15 03:41:00,
2013-11-14 22:42:00,74.3,60.0,30.16,East,91,24.8,24.8,61,0.00,,,0.00,TxWx,2013-11-15 03:42:00,
2013-11-14 22:43:00,74.2,59.0,30.16,ESE,114,26.0,27.8,60,0.00,,,0.00,TxWx,2013-11-15 03:43:00,
2013-11-14 22:44:00,74.1,59.0,30.16,East,91,24.1,24.8,61,0.00,,,0.00,TxWx,2013-11-15 03:44:00,
2013-11-14 22:47:00,74.3,60.0,30.16,East,91,26.6,26.6,62,0.00,,,0.00,TxWx,2013-11-15 03:47:00,
2013-11-14 22:48:00,74.6,61.0,30.16,East,91,19.8,19.8,63,0.00,,,0.00,TxWx,2013-11-15 03:48:00,
2013-11-14 22:49:00,74.6,61.0,30.16,East,91,19.2,21.0,63,0.00,,,0.00,TxWx,2013-11-15 03:49:00,
2013-11-14 22:52:00,74.3,61.0,30.15,East,91,19.2,21.0,63,0.00,,,0.00,TxWx,2013-11-15 03:52:00,
2013-11-14 22:54:00,73.8,60.0,30.15,East,91,22.9,25.4,62,0.00,,,0.00,TxWx,2013-11-15 03:54:00,
2013-11-14 22:56:00,74.1,60.0,30.15,East,91,19.8,19.8,61,0.00,,,0.00,TxWx,2013-11-15 03:56:00,
2013-11-14 22:58:00,74.3,60.0,30.15,East,91,27.8,27.8,62,0.00,,,0.00,TxWx,2013-11-15 03:58:00,
2013-11-14 22:59:00,74.3,60.0,30.15,ESE,114,26.6,29.1,63,0.00,,,0.00,TxWx,2013-11-15 03:59:00,
2013-11-14 23:00:00,74.4,61.0,30.15,East,91,26.6,28.5,63,0.00,,,0.00,TxWx,2013-11-15 04:00:00,
2013-11-14 23:01:00,74.0,60.0,30.15,East,91,22.3,23.5,61,0.00,,,0.00,TxWx,2013-11-15 04:01:00,
2013-11-14 23:03:00,74.3,60.0,30.15,ENE,69,16.1,18.6,61,0.00,,,0.00,TxWx,2013-11-15 04:03:00,
2013-11-14 23:04:00,74.4,60.0,30.15,East,91,21.7,22.3,62,0.00,,,0.00,TxWx,2013-11-15 04:04:00,
2013-11-14 23:06:00,74.2,60.0,30.14,East,91,23.5,25.4,63,0.00,,,0.00,TxWx,2013-11-15 04:06:00,
2013-11-14 23:07:00,74.1,61.0,30.15,East,91,20.4,22.9,63,0.00,,,0.00,TxWx,2013-11-15 04:07:00,
2013-11-14 23:09:00,74.1,61.0,30.15,East,91,22.9,22.9,63,0.00,,,0.00,TxWx,2013-11-15 04:09:00,
2013-11-14 23:10:00,74.2,60.0,30.15,ESE,114,14.9,15.5,62,0.00,,,0.00,TxWx,2013-11-15 04:10:00,
2013-11-14 23:11:00,74.7,62.0,30.15,East,91,24.1,24.8,65,0.00,,,0.00,TxWx,2013-11-15 04:11:00,
2013-11-14 23:13:00,74.1,60.0,30.15,East,91,24.8,24.8,63,0.00,,,0.00,TxWx,2013-11-15 04:13:00,
2013-11-14 23:15:00,74.3,60.0,30.15,ESE,114,18.6,18.6,63,0.00,,,0.00,TxWx,2013-11-15 04:15:00,
2013-11-14 23:16:00,74.2,60.0,30.15,East,91,18.6,18.6,63,0.00,,,0.00,TxWx,2013-11-15 04:16:00,
2013-11-14 23:19:00,74.3,61.0,30.15,East,91,26.0,26.0,63,0.00,,,0.00,TxWx,2013-11-15 04:19:00,
2013-11-14 23:20:00,74.3,60.0,30.15,ESE,114,21.7,22.3,62,0.00,,,0.00,TxWx,2013-11-15 04:20:00,
2013-11-14 23:21:00,74.5,62.0,30.15,ESE,114,24.1,26.0,64,0.00,,,0.00,TxWx,2013-11-15 04:21:00,
2013-11-14 23:22:00,74.6,62.0,30.15,ESE,114,19.2,19.2,65,0.00,,,0.00,TxWx,2013-11-15 04:22:00,
2013-11-14 23:24:00,74.3,60.0,30.15,East,91,17.9,21.7,63,0.00,,,0.00,TxWx,2013-11-15 04:24:00,
2013-11-14 23:25:00,74.0,60.0,30.15,East,91,26.6,29.7,63,0.00,,,0.00,TxWx,2013-11-15 04:25:00,
2013-11-14 23:26:00,74.0,60.0,30.15,ESE,114,22.9,23.5,63,0.00,,,0.00,TxWx,2013-11-15 04:26:00,
2013-11-14 23:27:00,74.6,62.0,30.15,East,91,19.2,19.8,64,0.00,,,0.00,TxWx,2013-11-15 04:27:00,
2013-11-14 23:30:00,74.4,61.0,30.15,East,91,15.5,17.9,64,0.00,,,0.00,TxWx,2013-11-15 04:30:00,
2013-11-14 23:31:00,74.1,61.0,30.15,East,91,24.8,24.8,65,0.00,,,0.00,TxWx,2013-11-15 04:31:00,
2013-11-14 23:32:00,73.9,60.0,30.15,East,91,19.8,22.3,62,0.00,,,0.00,TxWx,2013-11-15 04:32:00,
2013-11-14 23:35:00,74.4,61.0,30.14,East,91,23.5,24.1,64,0.00,,,0.00,TxWx,2013-11-15 04:35:00,
2013-11-14 23:36:00,74.1,61.0,30.15,ESE,114,20.4,21.7,63,0.00,,,0.00,TxWx,2013-11-15 04:36:00,
2013-11-14 23:37:00,74.2,61.0,30.14,East,91,21.0,24.1,63,0.00,,,0.00,TxWx,2013-11-15 04:37:00,
2013-11-14 23:38:00,74.6,62.0,30.14,ESE,114,22.9,22.9,63,0.00,,,0.00,TxWx,2013-11-15 04:38:00,
2013-11-14 23:40:00,73.9,61.0,30.14,East,91,19.2,22.3,63,0.00,,,0.00,TxWx,2013-11-15 04:40:00,
2013-11-14 23:41:00,74.3,61.0,30.14,ENE,69,20.4,20.4,64,0.00,,,0.00,TxWx,2013-11-15 04:41:00,
2013-11-14 23:42:00,74.1,61.0,30.14,East,91,18.6,18.6,64,0.00,,,0.00,TxWx,2013-11-15 04:42:00,
2013-11-14 23:43:00,73.9,60.0,30.14,East,91,21.0,22.9,63,0.00,,,0.00,TxWx,2013-11-15 04:43:00,
2013-11-14 23:44:00,74.2,61.0,30.14,East,91,24.1,26.0,64,0.00,,,0.00,TxWx,2013-11-15 04:44:00,
2013-11-14 23:45:00,74.1,60.0,30.14,East,91,20.4,20.4,63,0.00,,,0.00,TxWx,2013-11-15 04:45:00,
2013-11-14 23:46:00,74.4,61.0,30.14,East,91,17.3,17.3,64,0.00,,,0.00,TxWx,2013-11-15 04:46:00,
2013-11-14 23:47:00,74.2,61.0,30.14,East,91,21.7,24.8,64,0.00,,,0.00,TxWx,2013-11-15 04:47:00,
2013-11-14 23:48:00,74.5,62.0,30.14,East,91,24.8,24.8,65,0.00,,,0.00,TxWx,2013-11-15 04:48:00,
2013-11-14 23:49:00,74.0,61.0,30.14,East,91,26.6,28.5,64,0.00,,,0.00,TxWx,2013-11-15 04:49:00,
2013-11-14 23:50:00,74.5,61.0,30.14,East,91,16.1,16.1,64,0.00,,,0.00,TxWx,2013-11-15 04:50:00,
2013-11-14 23:51:00,74.3,61.0,30.14,East,91,23.5,24.1,65,0.00,,,0.00,TxWx,2013-11-15 04:51:00,
2013-11-14 23:52:00,74.4,61.0,30.14,ESE,114,20.4,20.4,64,0.00,,,0.00,TxWx,2013-11-15 04:52:00,
2013-11-14 23:53:00,74.1,61.0,30.14,East,91,20.4,21.7,64,0.00,,,0.00,TxWx,2013-11-15 04:53:00,
2013-11-14 23:54:00,74.4,60.0,30.14,ESE,114,22.3,22.3,63,0.00,,,0.00,TxWx,2013-11-15 04:54:00,
2013-11-14 23:56:00,74.3,60.0,30.14,ESE,114,21.0,21.0,63,0.00,,,0.00,TxWx,2013-11-15 04:56:00,
2013-11-14 23:57:00,74.4,61.0,30.14,East,91,21.0,21.0,65,0.00,,,0.00,TxWx,2013-11-15 04:57:00,
2013-11-14 23:58:00,74.5,62.0,30.14,East,91,21.0,21.0,64,0.00,,,0.00,TxWx,2013-11-15 04:58:00,
2013-11-14 23:59:00,74.5,61.0,30.14,East,91,26.0,26.0,65,0.00,,,0.00,TxWx,2013-11-15 04:59:00,